Observation data for Coyanosa on 05/25/2019      Previous  Date  Next       Current Mesonet Observations  Soil Data  Daily Summary Page  Observations in Plain Language
KCO1 250500Z 13012G19KT 26/18 A2987 RMK A01 T02550184  RH  065%=      5-min Rain = 0
KCO1 250501Z 14017KT 26/18 A2987 RMK A01 T02550184  RH  065%=      5-min Rain = 0
KCO1 250502Z 14019KT 26/18 A2987 RMK A01 T02560184  RH  065%=      5-min Rain = 0
KCO1 250503Z 13015KT 26/18 A2987 RMK A01 T02560184  RH  065%=      5-min Rain = 0
KCO1 250504Z 14017G22KT 26/18 A2987 RMK A01 T02560184  RH  064%=      5-min Rain = 0
KCO1 250505Z 14016G21KT 26/18 A2987 RMK A01 T02560184  RH  064%=      5-min Rain = 0
KCO1 250506Z 13017KT 26/18 A2987 RMK A01 T02560184  RH  064%=      5-min Rain = 0
KCO1 250507Z 14015G20KT 26/18 A2987 RMK A01 T02560184  RH  064%=      5-min Rain = 0
KCO1 250508Z 14017KT 26/19 A2987 RMK A01 T02570185  RH  064%=      5-min Rain = 0
KCO1 250509Z 14018G23KT 26/18 A2986 RMK A01 T02560184  RH  064%=      5-min Rain = 0
KCO1 250510Z 13013G18KT 26/18 A2987 RMK A01 T02570184  RH  064%=      5-min Rain = 0
KCO1 250511Z 14019G26KT 26/19 A2986 RMK A01 T02570185  RH  064%=      5-min Rain = 0
KCO1 250512Z 14017KT 26/18 A2987 RMK A01 T02570184  RH  064%=      5-min Rain = 0
KCO1 250513Z 14018KT 26/18 A2987 RMK A01 T02570184  RH  064%=      5-min Rain = 0
KCO1 250514Z 14017G22KT 26/18 A2986 RMK A01 T02560184  RH  064%=      5-min Rain = 0
KCO1 250515Z 14015KT 26/18 A2987 RMK A01 T02560184  RH  064%=      5-min Rain = 0
KCO1 250516Z 14013KT 26/18 A2987 RMK A01 T02560184  RH  064%=      5-min Rain = 0
KCO1 250517Z 14016G22KT 26/18 A2987 RMK A01 T02560184  RH  065%=      5-min Rain = 0
KCO1 250518Z 14019G26KT 26/18 A2986 RMK A01 T02560184  RH  065%=      5-min Rain = 0
KCO1 250519Z 14018KT 26/18 A2987 RMK A01 T02560184  RH  065%=      5-min Rain = 0
KCO1 250520Z 14017G23KT 26/18 A2986 RMK A01 T02560184  RH  064%=      5-min Rain = 0
KCO1 250521Z 14016KT 26/18 A2987 RMK A01 T02560184  RH  064%=      5-min Rain = 0
KCO1 250522Z 14018G24KT 26/18 A2986 RMK A01 T02560184  RH  064%=      5-min Rain = 0
KCO1 250523Z 13017KT 26/18 A2987 RMK A01 T02560184  RH  064%=      5-min Rain = 0
KCO1 250524Z 14016KT 26/18 A2987 RMK A01 T02560184  RH  064%=      5-min Rain = 0
KCO1 250525Z 15014KT 26/18 A2987 RMK A01 T02560184  RH  064%=      5-min Rain = 0
KCO1 250526Z 14018KT 26/19 A2986 RMK A01 T02560185  RH  065%=      5-min Rain = 0
KCO1 250527Z 14023KT 26/18 A2986 RMK A01 T02560184  RH  064%=      5-min Rain = 0
KCO1 250528Z 14018KT 26/18 A2986 RMK A01 T02570184  RH  064%=      5-min Rain = 0
KCO1 250529Z 14017G23KT 26/18 A2986 RMK A01 T02570184  RH  064%=      5-min Rain = 0
KCO1 250530Z 14016G23KT 26/18 A2987 RMK A01 T02570184  RH  064%=      5-min Rain = 0
KCO1 250531Z 14018G23KT 26/19 A2986 RMK A01 T02570185  RH  064%=      5-min Rain = 0
KCO1 250532Z 14020KT 26/18 A2986 RMK A01 T02570184  RH  064%=      5-min Rain = 0
KCO1 250533Z 14016KT 26/18 A2986 RMK A01 T02570184  RH  064%=      5-min Rain = 0
KCO1 250534Z 14015KT 26/18 A2986 RMK A01 T02570184  RH  064%=      5-min Rain = 0
KCO1 250535Z 14016KT 26/18 A2986 RMK A01 T02570184  RH  064%=      5-min Rain = 0
KCO1 250536Z 14016KT 26/18 A2986 RMK A01 T02570184  RH  064%=      5-min Rain = 0
KCO1 250537Z 14016G21KT 26/18 A2986 RMK A01 T02560184  RH  064%=      5-min Rain = 0
KCO1 250538Z 14019KT 26/18 A2986 RMK A01 T02560184  RH  064%=      5-min Rain = 0
KCO1 250539Z 14017KT 26/18 A2986 RMK A01 T02570184  RH  064%=      5-min Rain = 0
KCO1 250540Z 13014G20KT 26/18 A2986 RMK A01 T02570184  RH  064%=      5-min Rain = 0
KCO1 250541Z 14017KT 26/18 A2986 RMK A01 T02560184  RH  064%=      5-min Rain = 0
KCO1 250542Z 14016KT 26/18 A2986 RMK A01 T02560184  RH  064%=      5-min Rain = 0
KCO1 250543Z 14020KT 26/18 A2986 RMK A01 T02570184  RH  064%=      5-min Rain = 0
KCO1 250544Z 14017KT 26/18 A2986 RMK A01 T02570184  RH  064%=      5-min Rain = 0
KCO1 250545Z 14018G23KT 26/18 A2986 RMK A01 T02580184  RH  064%=      5-min Rain = 0
KCO1 250546Z 14017KT 26/18 A2986 RMK A01 T02570183  RH  064%=      5-min Rain = 0
KCO1 250547Z 14016G22KT 26/18 A2986 RMK A01 T02570183  RH  064%=      5-min Rain = 0
KCO1 250548Z 14014KT 26/18 A2986 RMK A01 T02570183  RH  064%=      5-min Rain = 0
KCO1 250549Z 14015KT 26/18 A2986 RMK A01 T02570183  RH  064%=      5-min Rain = 0
KCO1 250550Z 14014KT 26/18 A2986 RMK A01 T02570184  RH  064%=      5-min Rain = 0
KCO1 250551Z 14017G23KT 26/18 A2986 RMK A01 T02570183  RH  064%=      5-min Rain = 0
KCO1 250552Z 14017KT 26/18 A2986 RMK A01 T02570183  RH  064%=      5-min Rain = 0
KCO1 250553Z 14016G21KT 26/18 A2986 RMK A01 T02570183  RH  063%=      5-min Rain = 0
KCO1 250554Z 14018KT 26/18 A2986 RMK A01 T02580183  RH  063%=      5-min Rain = 0
KCO1 250555Z 14015KT 26/18 A2986 RMK A01 T02570183  RH  063%=      5-min Rain = 0
KCO1 250556Z 14015G21KT 26/18 A2986 RMK A01 T02570183  RH  064%=      5-min Rain = 0
KCO1 250557Z 14015KT 26/18 A2986 RMK A01 T02570183  RH  064%=      5-min Rain = 0
KCO1 250558Z 13012G18KT 26/18 A2986 RMK A01 T02570183  RH  064%=      5-min Rain = 0
KCO1 250559Z 14014KT 26/18 A2986 RMK A01 T02570183  RH  064%=      5-min Rain = 0
KCO1 250600Z 13013G19KT 26/18 A2986 RMK A01 T02570183  RH  064%=      5-min Rain = 0
KCO1 250601Z 14016G22KT 26/18 A2986 RMK A01 T02560183  RH  064%=      5-min Rain = 0
KCO1 250602Z 14018G24KT 26/18 A2986 RMK A01 T02560182  RH  064%=      5-min Rain = 0
KCO1 250603Z 14014KT 26/18 A2986 RMK A01 T02570182  RH  063%=      5-min Rain = 0
KCO1 250604Z 14016KT 26/18 A2986 RMK A01 T02570183  RH  063%=      5-min Rain = 0
KCO1 250605Z 13015KT 26/18 A2986 RMK A01 T02570183  RH  063%=      5-min Rain = 0
KCO1 250606Z 14014KT 26/18 A2986 RMK A01 T02570183  RH  063%=      5-min Rain = 0
KCO1 250607Z 13014KT 26/18 A2986 RMK A01 T02570183  RH  064%=      5-min Rain = 0
KCO1 250608Z 14014KT 26/18 A2986 RMK A01 T02560183  RH  064%=      5-min Rain = 0
KCO1 250609Z 14014G20KT 26/18 A2986 RMK A01 T02560183  RH  064%=      5-min Rain = 0
KCO1 250610Z 14016G21KT 26/18 A2986 RMK A01 T02560183  RH  064%=      5-min Rain = 0
KCO1 250611Z 13014G20KT 26/18 A2986 RMK A01 T02560183  RH  064%=      5-min Rain = 0
KCO1 250612Z 13017KT 26/18 A2986 RMK A01 T02560183  RH  064%=      5-min Rain = 0
KCO1 250613Z 14016KT 26/18 A2986 RMK A01 T02560183  RH  064%=      5-min Rain = 0
KCO1 250614Z 14015KT 26/18 A2986 RMK A01 T02560183  RH  064%=      5-min Rain = 0
KCO1 250615Z 14015KT 26/18 A2986 RMK A01 T02560182  RH  064%=      5-min Rain = 0
KCO1 250616Z 13016KT 26/18 A2986 RMK A01 T02550183  RH  064%=      5-min Rain = 0
KCO1 250617Z 13014KT 26/18 A2986 RMK A01 T02550183  RH  064%=      5-min Rain = 0
KCO1 250618Z 14015KT 26/18 A2986 RMK A01 T02550183  RH  064%=      5-min Rain = 0
KCO1 250619Z 14012G18KT 26/18 A2986 RMK A01 T02550183  RH  064%=      5-min Rain = 0
KCO1 250620Z 13011KT 26/18 A2986 RMK A01 T02550183  RH  064%=      5-min Rain = 0
KCO1 250621Z 13013G18KT 25/18 A2986 RMK A01 T02540183  RH  065%=      5-min Rain = 0
KCO1 250622Z 14014KT 25/18 A2986 RMK A01 T02540183  RH  065%=      5-min Rain = 0
KCO1 250623Z 14015KT 25/18 A2986 RMK A01 T02540183  RH  065%=      5-min Rain = 0
KCO1 250624Z 13014G19KT 25/18 A2986 RMK A01 T02540182  RH  065%=      5-min Rain = 0
KCO1 250625Z 15013KT 25/18 A2986 RMK A01 T02540183  RH  065%=      5-min Rain = 0
KCO1 250626Z 14011KT 25/18 A2986 RMK A01 T02540183  RH  065%=      5-min Rain = 0
KCO1 250627Z 13013KT 25/18 A2986 RMK A01 T02540183  RH  065%=      5-min Rain = 0
KCO1 250628Z 13013G19KT 25/18 A2986 RMK A01 T02530183  RH  065%=      5-min Rain = 0
KCO1 250629Z 13015KT 25/18 A2986 RMK A01 T02530183  RH  065%=      5-min Rain = 0
KCO1 250630Z 14016KT 25/18 A2986 RMK A01 T02540183  RH  065%=      5-min Rain = 0
KCO1 250631Z 13014KT 25/18 A2986 RMK A01 T02540182  RH  065%=      5-min Rain = 0
KCO1 250632Z 13013KT 25/18 A2986 RMK A01 T02540183  RH  065%=      5-min Rain = 0
KCO1 250633Z 13013KT 25/18 A2986 RMK A01 T02540183  RH  065%=      5-min Rain = 0
KCO1 250634Z 13012KT 25/18 A2986 RMK A01 T02540183  RH  065%=      5-min Rain = 0
KCO1 250635Z 14012G17KT 25/18 A2986 RMK A01 T02530183  RH  065%=      5-min Rain = 0
KCO1 250636Z 14015KT 25/18 A2986 RMK A01 T02530183  RH  065%=      5-min Rain = 0
KCO1 250637Z 13011KT 25/18 A2986 RMK A01 T02520183  RH  065%=      5-min Rain = 0
KCO1 250638Z 13009KT 25/18 A2986 RMK A01 T02530183  RH  065%=      5-min Rain = 0
KCO1 250639Z 14008G14KT 25/18 A2986 RMK A01 T02520183  RH  065%=      5-min Rain = 0
KCO1 250640Z 14012KT 25/18 A2986 RMK A01 T02510183  RH  066%=      5-min Rain = 0
KCO1 250641Z 13010KT 25/18 A2986 RMK A01 T02510182  RH  066%=      5-min Rain = 0
KCO1 250642Z 13012KT 25/18 A2986 RMK A01 T02510183  RH  066%=      5-min Rain = 0
KCO1 250643Z 13013KT 25/18 A2986 RMK A01 T02510183  RH  066%=      5-min Rain = 0
KCO1 250644Z 13011KT 25/18 A2986 RMK A01 T02510183  RH  066%=      5-min Rain = 0
KCO1 250645Z 14011KT 25/18 A2986 RMK A01 T02510182  RH  066%=      5-min Rain = 0
KCO1 250646Z 13010G15KT 25/18 A2986 RMK A01 T02510183  RH  066%=      5-min Rain = 0
KCO1 250647Z 13012KT 25/18 A2986 RMK A01 T02510183  RH  066%=      5-min Rain = 0
KCO1 250648Z 12008KT 25/18 A2986 RMK A01 T02510183  RH  066%=      5-min Rain = 0
KCO1 250649Z 13008KT 25/18 A2986 RMK A01 T02500183  RH  066%=      5-min Rain = 0
KCO1 250650Z 13011KT 25/18 A2986 RMK A01 T02490183  RH  066%=      5-min Rain = 0
KCO1 250651Z 12010KT 25/18 A2986 RMK A01 T02490183  RH  067%=      5-min Rain = 0
KCO1 250652Z 12010KT 25/18 A2986 RMK A01 T02490183  RH  067%=      5-min Rain = 0
KCO1 250653Z 12009KT 25/18 A2986 RMK A01 T02490183  RH  067%=      5-min Rain = 0
KCO1 250654Z 13009KT 25/18 A2986 RMK A01 T02490183  RH  067%=      5-min Rain = 0
KCO1 250655Z 13010KT 25/18 A2986 RMK A01 T02480183  RH  067%=      5-min Rain = 0
KCO1 250656Z 12009KT 25/18 A2986 RMK A01 T02480183  RH  067%=      5-min Rain = 0
KCO1 250657Z 12009KT 25/18 A2986 RMK A01 T02480183  RH  067%=      5-min Rain = 0
KCO1 250658Z 11010KT 25/18 A2986 RMK A01 T02480183  RH  067%=      5-min Rain = 0
KCO1 250659Z 11009KT 25/18 A2986 RMK A01 T02470183  RH  067%=      5-min Rain = 0
KCO1 250700Z 12009KT 25/18 A2986 RMK A01 T02470183  RH  067%=      5-min Rain = 0
KCO1 250701Z 12010KT 25/18 A2986 RMK A01 T02470183  RH  068%=      5-min Rain = 0
KCO1 250702Z 11010KT 25/18 A2986 RMK A01 T02460183  RH  068%=      5-min Rain = 0
KCO1 250703Z 12010KT 25/18 A2986 RMK A01 T02460183  RH  068%=      5-min Rain = 0
KCO1 250704Z 12010KT 25/18 A2986 RMK A01 T02460183  RH  068%=      5-min Rain = 0
KCO1 250705Z 12012KT 25/18 A2986 RMK A01 T02460183  RH  068%=      5-min Rain = 0
KCO1 250706Z 12010G15KT 25/18 A2986 RMK A01 T02460183  RH  068%=      5-min Rain = 0
KCO1 250707Z 12010KT 25/18 A2986 RMK A01 T02460183  RH  068%=      5-min Rain = 0
KCO1 250708Z 11009KT 25/18 A2986 RMK A01 T02460183  RH  068%=      5-min Rain = 0
KCO1 250709Z 12011KT 25/18 A2986 RMK A01 T02450183  RH  068%=      5-min Rain = 0
KCO1 250710Z 12010KT 25/18 A2986 RMK A01 T02450183  RH  068%=      5-min Rain = 0
KCO1 250711Z 13011KT 25/18 A2986 RMK A01 T02450183  RH  068%=      5-min Rain = 0
KCO1 250712Z 13010KT 25/18 A2986 RMK A01 T02450182  RH  068%=      5-min Rain = 0
KCO1 250713Z 12010KT 25/18 A2986 RMK A01 T02450183  RH  068%=      5-min Rain = 0
KCO1 250714Z 12011KT 25/18 A2986 RMK A01 T02450183  RH  068%=      5-min Rain = 0
KCO1 250715Z 13011KT 25/18 A2986 RMK A01 T02450183  RH  068%=      5-min Rain = 0
KCO1 250716Z 13012KT 25/18 A2986 RMK A01 T02450183  RH  068%=      5-min Rain = 0
KCO1 250717Z 13011KT 25/18 A2986 RMK A01 T02450183  RH  068%=      5-min Rain = 0
KCO1 250718Z 14011KT 25/18 A2986 RMK A01 T02450183  RH  068%=      5-min Rain = 0
KCO1 250719Z 13009KT 25/18 A2986 RMK A01 T02450183  RH  068%=      5-min Rain = 0
KCO1 250720Z 12009KT 25/18 A2986 RMK A01 T02450183  RH  069%=      5-min Rain = 0
KCO1 250721Z 12012KT 24/18 A2986 RMK A01 T02440183  RH  069%=      5-min Rain = 0
KCO1 250722Z 12012KT 24/18 A2986 RMK A01 T02440183  RH  069%=      5-min Rain = 0
KCO1 250723Z 12011KT 24/18 A2986 RMK A01 T02440183  RH  069%=      5-min Rain = 0
KCO1 250724Z 12012KT 24/18 A2986 RMK A01 T02440183  RH  069%=      5-min Rain = 0
KCO1 250725Z 12011KT 24/18 A2986 RMK A01 T02440183  RH  069%=      5-min Rain = 0
KCO1 250726Z 12010KT 24/18 A2986 RMK A01 T02440183  RH  069%=      5-min Rain = 0
KCO1 250727Z 12008KT 24/18 A2986 RMK A01 T02440183  RH  069%=      5-min Rain = 0
KCO1 250728Z 12010KT 24/18 A2986 RMK A01 T02430183  RH  069%=      5-min Rain = 0
KCO1 250729Z 13009KT 24/18 A2986 RMK A01 T02420183  RH  069%=      5-min Rain = 0
KCO1 250730Z 12012KT 24/18 A2986 RMK A01 T02420183  RH  070%=      5-min Rain = 0
KCO1 250731Z 13011KT 24/18 A2986 RMK A01 T02420184  RH  070%=      5-min Rain = 0
KCO1 250732Z 12010KT 24/18 A2986 RMK A01 T02420184  RH  070%=      5-min Rain = 0
KCO1 250733Z 12011KT 24/18 A2986 RMK A01 T02420184  RH  070%=      5-min Rain = 0
KCO1 250734Z 12011KT 24/18 A2986 RMK A01 T02420184  RH  070%=      5-min Rain = 0
KCO1 250735Z 12012KT 24/18 A2986 RMK A01 T02420184  RH  070%=      5-min Rain = 0
KCO1 250736Z 12012KT 24/18 A2986 RMK A01 T02420184  RH  070%=      5-min Rain = 0
KCO1 250737Z 12011KT 24/18 A2986 RMK A01 T02420184  RH  070%=      5-min Rain = 0
KCO1 250738Z 12012KT 24/18 A2986 RMK A01 T02420184  RH  070%=      5-min Rain = 0
KCO1 250739Z 13012KT 24/18 A2986 RMK A01 T02420184  RH  070%=      5-min Rain = 0
KCO1 250740Z 12011KT 24/18 A2986 RMK A01 T02420184  RH  070%=      5-min Rain = 0
KCO1 250741Z 13012KT 24/18 A2986 RMK A01 T02420184  RH  070%=      5-min Rain = 0
KCO1 250742Z 13012KT 24/19 A2986 RMK A01 T02410185  RH  071%=      5-min Rain = 0
KCO1 250743Z 13010KT 24/19 A2986 RMK A01 T02410185  RH  071%=      5-min Rain = 0
KCO1 250744Z 13012KT 24/19 A2986 RMK A01 T02410185  RH  071%=      5-min Rain = 0
KCO1 250745Z 12011KT 24/19 A2986 RMK A01 T02410185  RH  071%=      5-min Rain = 0
KCO1 250746Z 13011KT 24/19 A2986 RMK A01 T02410185  RH  071%=      5-min Rain = 0
KCO1 250747Z 13009KT 24/19 A2986 RMK A01 T02400185  RH  071%=      5-min Rain = 0
KCO1 250748Z 13008KT 24/19 A2986 RMK A01 T02400185  RH  071%=      5-min Rain = 0
KCO1 250749Z 13011KT 24/19 A2986 RMK A01 T02400186  RH  072%=      5-min Rain = 0
KCO1 250750Z 13009KT 24/19 A2986 RMK A01 T02400186  RH  072%=      5-min Rain = 0
KCO1 250751Z 13011KT 24/19 A2985 RMK A01 T02390186  RH  072%=      5-min Rain = 0
KCO1 250752Z 13011KT 24/19 A2985 RMK A01 T02390186  RH  072%=      5-min Rain = 0
KCO1 250753Z 12011KT 24/19 A2985 RMK A01 T02390186  RH  072%=      5-min Rain = 0
KCO1 250754Z 12011KT 24/19 A2985 RMK A01 T02390187  RH  072%=      5-min Rain = 0
KCO1 250755Z 13011KT 24/19 A2986 RMK A01 T02390187  RH  073%=      5-min Rain = 0
KCO1 250756Z 13011KT 24/19 A2986 RMK A01 T02390187  RH  073%=      5-min Rain = 0
KCO1 250757Z 13010G15KT 24/19 A2986 RMK A01 T02390187  RH  073%=      5-min Rain = 0
KCO1 250758Z 13009KT 24/19 A2986 RMK A01 T02380187  RH  073%=      5-min Rain = 0
KCO1 250759Z 13011KT 24/19 A2986 RMK A01 T02380188  RH  073%=      5-min Rain = 0
KCO1 250800Z 14010KT 24/19 A2986 RMK A01 T02380188  RH  073%=      5-min Rain = 0
KCO1 250801Z 13010KT 24/19 A2986 RMK A01 T02380188  RH  073%=      5-min Rain = 0
KCO1 250802Z 13011KT 24/19 A2986 RMK A01 T02380188  RH  073%=      5-min Rain = 0
KCO1 250803Z 13012KT 24/19 A2985 RMK A01 T02380188  RH  074%=      5-min Rain = 0
KCO1 250804Z 14012KT 24/19 A2986 RMK A01 T02380188  RH  074%=      5-min Rain = 0
KCO1 250805Z 13011KT 24/19 A2985 RMK A01 T02380189  RH  074%=      5-min Rain = 0
KCO1 250806Z 13010KT 24/19 A2985 RMK A01 T02380189  RH  074%=      5-min Rain = 0
KCO1 250807Z 13011KT 24/19 A2985 RMK A01 T02380189  RH  074%=      5-min Rain = 0
KCO1 250808Z 14012KT 24/19 A2985 RMK A01 T02380189  RH  074%=      5-min Rain = 0
KCO1 250809Z 14013KT 24/19 A2985 RMK A01 T02380189  RH  074%=      5-min Rain = 0
KCO1 250810Z 14012KT 24/19 A2985 RMK A01 T02380189  RH  074%=      5-min Rain = 0
KCO1 250811Z 14010KT 24/19 A2985 RMK A01 T02380189  RH  074%=      5-min Rain = 0
KCO1 250812Z 14010KT 24/19 A2986 RMK A01 T02390190  RH  074%=      5-min Rain = 0
KCO1 250813Z 14011KT 24/19 A2986 RMK A01 T02390190  RH  074%=      5-min Rain = 0
KCO1 250814Z 14011KT 24/19 A2985 RMK A01 T02390190  RH  074%=      5-min Rain = 0
KCO1 250815Z 14012KT 24/19 A2985 RMK A01 T02390190  RH  074%=      5-min Rain = 0
KCO1 250816Z 14013KT 24/19 A2985 RMK A01 T02380190  RH  074%=      5-min Rain = 0
KCO1 250817Z 14013KT 24/19 A2985 RMK A01 T02380190  RH  074%=      5-min Rain = 0
KCO1 250818Z 14010KT 24/19 A2985 RMK A01 T02380190  RH  074%=      5-min Rain = 0
KCO1 250819Z 14010KT 24/19 A2985 RMK A01 T02380191  RH  075%=      5-min Rain = 0
KCO1 250820Z 14010KT 24/19 A2985 RMK A01 T02380191  RH  075%=      5-min Rain = 0
KCO1 250821Z 14010KT 24/19 A2985 RMK A01 T02380191  RH  075%=      5-min Rain = 0
KCO1 250822Z 14009KT 24/19 A2985 RMK A01 T02370191  RH  075%=      5-min Rain = 0
KCO1 250823Z 14010G17KT 24/19 A2985 RMK A01 T02370191  RH  075%=      5-min Rain = 0
KCO1 250824Z 14012KT 24/19 A2985 RMK A01 T02370191  RH  075%=      5-min Rain = 0
KCO1 250825Z 14011KT 24/19 A2985 RMK A01 T02370191  RH  075%=      5-min Rain = 0
KCO1 250826Z 14009KT 24/19 A2985 RMK A01 T02370191  RH  075%=      5-min Rain = 0
KCO1 250827Z 14008KT 24/19 A2986 RMK A01 T02370191  RH  075%=      5-min Rain = 0
KCO1 250828Z 14009KT 24/19 A2986 RMK A01 T02370192  RH  076%=      5-min Rain = 0
KCO1 250829Z 14010KT 24/19 A2985 RMK A01 T02370192  RH  076%=      5-min Rain = 0
KCO1 250830Z 14010KT 24/19 A2985 RMK A01 T02370192  RH  076%=      5-min Rain = 0
KCO1 250831Z 14009KT 24/19 A2985 RMK A01 T02370192  RH  076%=      5-min Rain = 0
KCO1 250832Z 13009KT 24/19 A2985 RMK A01 T02370192  RH  076%=      5-min Rain = 0
KCO1 250833Z 13009KT 24/19 A2985 RMK A01 T02370192  RH  076%=      5-min Rain = 0
KCO1 250834Z 13011KT 24/19 A2985 RMK A01 T02360192  RH  076%=      5-min Rain = 0
KCO1 250835Z 13010KT 24/19 A2985 RMK A01 T02360192  RH  076%=      5-min Rain = 0
KCO1 250836Z 13009KT 24/19 A2985 RMK A01 T02360192  RH  076%=      5-min Rain = 0
KCO1 250837Z 13011KT 24/19 A2986 RMK A01 T02360192  RH  076%=      5-min Rain = 0
KCO1 250838Z 13009KT 24/19 A2986 RMK A01 T02360192  RH  076%=      5-min Rain = 0
KCO1 250839Z 13010KT 24/19 A2986 RMK A01 T02360192  RH  076%=      5-min Rain = 0
KCO1 250840Z 13011KT 24/19 A2986 RMK A01 T02360192  RH  076%=      5-min Rain = 0
KCO1 250841Z 13010KT 24/19 A2986 RMK A01 T02360192  RH  076%=      5-min Rain = 0
KCO1 250842Z 13011KT 24/19 A2986 RMK A01 T02360192  RH  076%=      5-min Rain = 0
KCO1 250843Z 13010KT 24/19 A2986 RMK A01 T02360192  RH  076%=      5-min Rain = 0
KCO1 250844Z 13009KT 24/19 A2986 RMK A01 T02370193  RH  076%=      5-min Rain = 0
KCO1 250845Z 13008KT 24/19 A2986 RMK A01 T02360193  RH  076%=      5-min Rain = 0
KCO1 250846Z 13008KT 24/19 A2986 RMK A01 T02360193  RH  077%=      5-min Rain = 0
KCO1 250847Z 12008KT 24/19 A2986 RMK A01 T02360193  RH  077%=      5-min Rain = 0
KCO1 250848Z 12009KT 24/19 A2986 RMK A01 T02350193  RH  077%=      5-min Rain = 0
KCO1 250849Z 12008KT 24/19 A2986 RMK A01 T02350193  RH  077%=      5-min Rain = 0
KCO1 250850Z 12009KT 24/19 A2986 RMK A01 T02350193  RH  077%=      5-min Rain = 0
KCO1 250851Z 12008KT 24/19 A2986 RMK A01 T02350193  RH  077%=      5-min Rain = 0
KCO1 250852Z 12008KT 24/19 A2986 RMK A01 T02350193  RH  077%=      5-min Rain = 0
KCO1 250853Z 11007KT 24/19 A2986 RMK A01 T02350193  RH  077%=      5-min Rain = 0
KCO1 250854Z 11008KT 24/19 A2986 RMK A01 T02350193  RH  077%=      5-min Rain = 0
KCO1 250855Z 11007KT 24/19 A2986 RMK A01 T02350193  RH  077%=      5-min Rain = 0
KCO1 250856Z 12008KT 24/19 A2986 RMK A01 T02350193  RH  077%=      5-min Rain = 0
KCO1 250857Z 11009KT 24/19 A2986 RMK A01 T02350193  RH  077%=      5-min Rain = 0
KCO1 250858Z 11007KT 24/19 A2986 RMK A01 T02350193  RH  077%=      5-min Rain = 0
KCO1 250859Z 11008KT 24/19 A2986 RMK A01 T02350193  RH  077%=      5-min Rain = 0
KCO1 250900Z 11006KT 24/19 A2986 RMK A01 T02350193  RH  077%=      5-min Rain = 0
KCO1 250901Z 11007KT 24/19 A2986 RMK A01 T02350193  RH  077%=      5-min Rain = 0
KCO1 250902Z 12006KT 23/19 A2986 RMK A01 T02340193  RH  078%=      5-min Rain = 0
KCO1 250903Z 12007KT 23/19 A2986 RMK A01 T02340193  RH  078%=      5-min Rain = 0
KCO1 250904Z 12008KT 23/19 A2986 RMK A01 T02340193  RH  078%=      5-min Rain = 0
KCO1 250905Z 12008KT 23/19 A2986 RMK A01 T02340193  RH  078%=      5-min Rain = 0
KCO1 250906Z 12008KT 23/19 A2986 RMK A01 T02340193  RH  078%=      5-min Rain = 0
KCO1 250907Z 12009KT 23/19 A2986 RMK A01 T02340193  RH  078%=      5-min Rain = 0
KCO1 250908Z 12008KT 23/19 A2986 RMK A01 T02330193  RH  078%=      5-min Rain = 0
KCO1 250909Z 13008KT 23/19 A2986 RMK A01 T02330193  RH  078%=      5-min Rain = 0
KCO1 250910Z 12009KT 23/19 A2986 RMK A01 T02340193  RH  078%=      5-min Rain = 0
KCO1 250911Z 12008KT 23/19 A2986 RMK A01 T02340193  RH  078%=      5-min Rain = 0
KCO1 250912Z 12007KT 23/19 A2986 RMK A01 T02340193  RH  078%=      5-min Rain = 0
KCO1 250913Z 12007KT 23/19 A2986 RMK A01 T02340193  RH  078%=      5-min Rain = 0
KCO1 250914Z 12008KT 23/19 A2986 RMK A01 T02340193  RH  078%=      5-min Rain = 0
KCO1 250915Z 13008KT 23/19 A2986 RMK A01 T02340194  RH  078%=      5-min Rain = 0
KCO1 250916Z 12007KT 23/19 A2986 RMK A01 T02340193  RH  078%=      5-min Rain = 0
KCO1 250917Z 13008KT 23/19 A2986 RMK A01 T02330193  RH  078%=      5-min Rain = 0
KCO1 250918Z 12009KT 23/19 A2986 RMK A01 T02340193  RH  078%=      5-min Rain = 0
KCO1 250919Z 12009KT 23/19 A2986 RMK A01 T02340194  RH  078%=      5-min Rain = 0
KCO1 250920Z 12009KT 23/19 A2986 RMK A01 T02340194  RH  078%=      5-min Rain = 0
KCO1 250921Z 12010KT 23/19 A2986 RMK A01 T02340194  RH  078%=      5-min Rain = 0
KCO1 250922Z 12009KT 23/19 A2986 RMK A01 T02340194  RH  078%=      5-min Rain = 0
KCO1 250923Z 12009KT 23/19 A2986 RMK A01 T02340194  RH  078%=      5-min Rain = 0
KCO1 250924Z 13010KT 23/19 A2986 RMK A01 T02340194  RH  078%=      5-min Rain = 0
KCO1 250925Z 13010KT 23/19 A2986 RMK A01 T02340194  RH  078%=      5-min Rain = 0
KCO1 250926Z 12009KT 23/19 A2986 RMK A01 T02340194  RH  078%=      5-min Rain = 0
KCO1 250927Z 13011KT 23/19 A2986 RMK A01 T02340194  RH  078%=      5-min Rain = 0
KCO1 250928Z 12013KT 23/19 A2985 RMK A01 T02340194  RH  078%=      5-min Rain = 0
KCO1 250929Z 12013KT 23/19 A2985 RMK A01 T02340194  RH  078%=      5-min Rain = 0
KCO1 250930Z 12013KT 23/19 A2985 RMK A01 T02340194  RH  078%=      5-min Rain = 0
KCO1 250931Z 12013KT 24/19 A2985 RMK A01 T02350194  RH  078%=      5-min Rain = 0
KCO1 250932Z 12012KT 24/19 A2985 RMK A01 T02350194  RH  078%=      5-min Rain = 0
KCO1 250933Z 13012KT 24/19 A2985 RMK A01 T02350194  RH  078%=      5-min Rain = 0
KCO1 250934Z 12012KT 23/19 A2985 RMK A01 T02340194  RH  078%=      5-min Rain = 0
KCO1 250935Z 12011KT 24/20 A2985 RMK A01 T02350195  RH  078%=      5-min Rain = 0
KCO1 250936Z 12014KT 23/19 A2985 RMK A01 T02340194  RH  078%=      5-min Rain = 0
KCO1 250937Z 12012KT 23/20 A2985 RMK A01 T02340195  RH  078%=      5-min Rain = 0
KCO1 250938Z 13011KT 23/20 A2985 RMK A01 T02340195  RH  078%=      5-min Rain = 0
KCO1 250939Z 13014KT 23/19 A2985 RMK A01 T02340194  RH  078%=      5-min Rain = 0
KCO1 250940Z 13012KT 23/20 A2985 RMK A01 T02340195  RH  078%=      5-min Rain = 0
KCO1 250941Z 13012KT 23/19 A2985 RMK A01 T02340194  RH  078%=      5-min Rain = 0
KCO1 250942Z 12014KT 23/19 A2985 RMK A01 T02340194  RH  078%=      5-min Rain = 0
KCO1 250943Z 13013KT 23/19 A2985 RMK A01 T02340194  RH  078%=      5-min Rain = 0
KCO1 250944Z 13014KT 23/19 A2985 RMK A01 T02340194  RH  078%=      5-min Rain = 0
KCO1 250945Z 13012KT 24/20 A2985 RMK A01 T02350195  RH  078%=      5-min Rain = 0
KCO1 250946Z 13013KT 24/20 A2985 RMK A01 T02350195  RH  078%=      5-min Rain = 0
KCO1 250947Z 13012KT 24/20 A2985 RMK A01 T02350195  RH  078%=      5-min Rain = 0
KCO1 250948Z 12013KT 23/20 A2985 RMK A01 T02340195  RH  078%=      5-min Rain = 0
KCO1 250949Z 13014KT 23/20 A2985 RMK A01 T02340195  RH  079%=      5-min Rain = 0
KCO1 250950Z 13014KT 23/20 A2985 RMK A01 T02340195  RH  079%=      5-min Rain = 0
KCO1 250951Z 12012KT 23/20 A2985 RMK A01 T02340195  RH  078%=      5-min Rain = 0
KCO1 250952Z 13010KT 23/20 A2985 RMK A01 T02340195  RH  078%=      5-min Rain = 0
KCO1 250953Z 12011KT 23/20 A2985 RMK A01 T02340195  RH  079%=      5-min Rain = 0
KCO1 250954Z 13012KT 23/19 A2985 RMK A01 T02330194  RH  079%=      5-min Rain = 0
KCO1 250955Z 13012KT 23/20 A2985 RMK A01 T02330195  RH  079%=      5-min Rain = 0
KCO1 250956Z 13012KT 23/20 A2985 RMK A01 T02330195  RH  079%=      5-min Rain = 0
KCO1 250957Z 13011KT 23/19 A2985 RMK A01 T02330194  RH  079%=      5-min Rain = 0
KCO1 250958Z 12010KT 23/20 A2985 RMK A01 T02330195  RH  079%=      5-min Rain = 0
KCO1 250959Z 12013KT 23/20 A2985 RMK A01 T02330195  RH  079%=      5-min Rain = 0
KCO1 251000Z 13013KT 23/20 A2985 RMK A01 T02330195  RH  079%=      5-min Rain = 0
KCO1 251001Z 13013KT 23/20 A2985 RMK A01 T02330195  RH  079%=      5-min Rain = 0
KCO1 251002Z 12012KT 23/19 A2985 RMK A01 T02330194  RH  079%=      5-min Rain = 0
KCO1 251003Z 12013KT 23/20 A2985 RMK A01 T02330195  RH  079%=      5-min Rain = 0
KCO1 251004Z 12011KT 23/20 A2985 RMK A01 T02330195  RH  079%=      5-min Rain = 0
KCO1 251005Z 12010KT 23/20 A2985 RMK A01 T02330195  RH  079%=      5-min Rain = 0
KCO1 251006Z 12010KT 23/20 A2985 RMK A01 T02330195  RH  079%=      5-min Rain = 0
KCO1 251007Z 12012KT 23/19 A2985 RMK A01 T02320194  RH  079%=      5-min Rain = 0
KCO1 251008Z 12011KT 23/20 A2985 RMK A01 T02320195  RH  079%=      5-min Rain = 0
KCO1 251009Z 12012G17KT 23/19 A2985 RMK A01 T02320194  RH  079%=      5-min Rain = 0
KCO1 251010Z 12013G18KT 23/20 A2985 RMK A01 T02320195  RH  079%=      5-min Rain = 0
KCO1 251011Z 12010KT 23/20 A2985 RMK A01 T02330195  RH  079%=      5-min Rain = 0
KCO1 251012Z 12012KT 23/19 A2985 RMK A01 T02330194  RH  079%=      5-min Rain = 0
KCO1 251013Z 12012KT 23/20 A2985 RMK A01 T02330195  RH  079%=      5-min Rain = 0
KCO1 251014Z 12010KT 23/20 A2986 RMK A01 T02330195  RH  079%=      5-min Rain = 0
KCO1 251015Z 12012KT 23/20 A2986 RMK A01 T02320195  RH  079%=      5-min Rain = 0
KCO1 251016Z 12011KT 23/20 A2986 RMK A01 T02320195  RH  079%=      5-min Rain = 0
KCO1 251017Z 12010KT 23/20 A2986 RMK A01 T02320195  RH  079%=      5-min Rain = 0
KCO1 251018Z 12010KT 23/20 A2986 RMK A01 T02320195  RH  079%=      5-min Rain = 0
KCO1 251019Z 12012KT 23/19 A2986 RMK A01 T02320194  RH  079%=      5-min Rain = 0
KCO1 251020Z 12012KT 23/19 A2986 RMK A01 T02320194  RH  079%=      5-min Rain = 0
KCO1 251021Z 12011KT 23/19 A2986 RMK A01 T02320194  RH  079%=      5-min Rain = 0
KCO1 251022Z 11010KT 23/19 A2986 RMK A01 T02320194  RH  079%=      5-min Rain = 0
KCO1 251023Z 11010KT 23/19 A2986 RMK A01 T02310194  RH  079%=      5-min Rain = 0
KCO1 251024Z 11012KT 23/19 A2986 RMK A01 T02320194  RH  079%=      5-min Rain = 0
KCO1 251025Z 11011KT 23/20 A2986 RMK A01 T02320195  RH  079%=      5-min Rain = 0
KCO1 251026Z 11011G16KT 23/19 A2986 RMK A01 T02320194  RH  080%=      5-min Rain = 0
KCO1 251027Z 11012KT 23/20 A2986 RMK A01 T02320195  RH  080%=      5-min Rain = 0
KCO1 251028Z 11011KT 23/20 A2986 RMK A01 T02320195  RH  080%=      5-min Rain = 0
KCO1 251029Z 11010KT 23/19 A2986 RMK A01 T02310194  RH  080%=      5-min Rain = 0
KCO1 251030Z 11009KT 23/20 A2986 RMK A01 T02310195  RH  080%=      5-min Rain = 0
KCO1 251031Z 11011KT 23/20 A2986 RMK A01 T02310195  RH  080%=      5-min Rain = 0
KCO1 251032Z 11008KT 23/20 A2986 RMK A01 T02310195  RH  080%=      5-min Rain = 0
KCO1 251033Z 11009KT 23/20 A2986 RMK A01 T02310195  RH  080%=      5-min Rain = 0
KCO1 251034Z 11010KT 23/20 A2986 RMK A01 T02310195  RH  080%=      5-min Rain = 0
KCO1 251035Z 10008KT 23/20 A2986 RMK A01 T02310195  RH  080%=      5-min Rain = 0
KCO1 251036Z 11006KT 23/20 A2986 RMK A01 T02310195  RH  080%=      5-min Rain = 0
KCO1 251037Z 11008KT 23/20 A2986 RMK A01 T02300195  RH  080%=      5-min Rain = 0
KCO1 251038Z 11007KT 23/20 A2986 RMK A01 T02300195  RH  080%=      5-min Rain = 0
KCO1 251039Z 11007KT 23/20 A2987 RMK A01 T02300195  RH  080%=      5-min Rain = 0
KCO1 251040Z 11008KT 23/20 A2987 RMK A01 T02300195  RH  081%=      5-min Rain = 0
KCO1 251041Z 10009KT 23/20 A2987 RMK A01 T02300195  RH  081%=      5-min Rain = 0
KCO1 251042Z 11008KT 23/20 A2987 RMK A01 T02300195  RH  081%=      5-min Rain = 0
KCO1 251043Z 10008KT 23/20 A2987 RMK A01 T02300195  RH  081%=      5-min Rain = 0
KCO1 251044Z 10007KT 23/20 A2987 RMK A01 T02300195  RH  081%=      5-min Rain = 0
KCO1 251045Z 10007KT 23/20 A2987 RMK A01 T02290195  RH  081%=      5-min Rain = 0
KCO1 251046Z 10007KT 23/20 A2987 RMK A01 T02290195  RH  081%=      5-min Rain = 0
KCO1 251047Z 10008KT 23/20 A2987 RMK A01 T02280195  RH  081%=      5-min Rain = 0
KCO1 251048Z 10009KT 23/20 A2987 RMK A01 T02280195  RH  082%=      5-min Rain = 0
KCO1 251049Z 11007KT 23/19 A2987 RMK A01 T02270194  RH  082%=      5-min Rain = 0
KCO1 251050Z 11008KT 23/20 A2987 RMK A01 T02280195  RH  082%=      5-min Rain = 0
KCO1 251051Z 11008KT 23/19 A2987 RMK A01 T02270194  RH  082%=      5-min Rain = 0
KCO1 251052Z 11009KT 23/19 A2987 RMK A01 T02270194  RH  082%=      5-min Rain = 0
KCO1 251053Z 11008KT 23/19 A2987 RMK A01 T02270194  RH  082%=      5-min Rain = 0
KCO1 251054Z 11009KT 23/19 A2987 RMK A01 T02270194  RH  082%=      5-min Rain = 0
KCO1 251055Z 11009KT 23/20 A2987 RMK A01 T02270195  RH  082%=      5-min Rain = 0
KCO1 251056Z 11009KT 23/19 A2987 RMK A01 T02260194  RH  082%=      5-min Rain = 0
KCO1 251057Z 11009KT 23/19 A2987 RMK A01 T02270194  RH  082%=      5-min Rain = 0
KCO1 251058Z 11010KT 23/19 A2987 RMK A01 T02260194  RH  082%=      5-min Rain = 0
KCO1 251059Z 12011KT 23/20 A2987 RMK A01 T02270195  RH  082%=      5-min Rain = 0
KCO1 251100Z 11011KT 23/20 A2987 RMK A01 T02260195  RH  082%=      5-min Rain = 0
KCO1 251101Z 12009KT 23/20 A2987 RMK A01 T02270195  RH  082%=      5-min Rain = 0
KCO1 251102Z 12008KT 23/19 A2987 RMK A01 T02270194  RH  082%=      5-min Rain = 0
KCO1 251103Z 11010KT 23/19 A2987 RMK A01 T02270194  RH  082%=      5-min Rain = 0
KCO1 251104Z 12011KT 23/20 A2987 RMK A01 T02270195  RH  082%=      5-min Rain = 0
KCO1 251105Z 12011KT 23/20 A2987 RMK A01 T02270195  RH  082%=      5-min Rain = 0
KCO1 251106Z 12010KT 23/20 A2987 RMK A01 T02270195  RH  082%=      5-min Rain = 0
KCO1 251107Z 12010KT 23/20 A2987 RMK A01 T02270195  RH  082%=      5-min Rain = 0
KCO1 251108Z 12010KT 23/19 A2987 RMK A01 T02270194  RH  082%=      5-min Rain = 0
KCO1 251109Z 12010KT 23/20 A2987 RMK A01 T02270195  RH  082%=      5-min Rain = 0
KCO1 251110Z 12009KT 23/20 A2987 RMK A01 T02270195  RH  082%=      5-min Rain = 0
KCO1 251111Z 12009KT 23/20 A2987 RMK A01 T02270195  RH  082%=      5-min Rain = 0
KCO1 251112Z 12009KT 23/20 A2987 RMK A01 T02270195  RH  082%=      5-min Rain = 0
KCO1 251113Z 12009KT 23/20 A2987 RMK A01 T02270195  RH  082%=      5-min Rain = 0
KCO1 251114Z 12009KT 23/20 A2988 RMK A01 T02270195  RH  082%=      5-min Rain = 0
KCO1 251115Z 12008KT 23/20 A2988 RMK A01 T02270195  RH  082%=      5-min Rain = 0
KCO1 251116Z 12009KT 23/20 A2987 RMK A01 T02270195  RH  082%=      5-min Rain = 0
KCO1 251117Z 12010KT 23/20 A2987 RMK A01 T02270195  RH  082%=      5-min Rain = 0
KCO1 251118Z 12008KT 23/20 A2987 RMK A01 T02270195  RH  082%=      5-min Rain = 0
KCO1 251119Z 12009KT 23/20 A2987 RMK A01 T02270195  RH  082%=      5-min Rain = 0
KCO1 251120Z 12008KT 23/20 A2988 RMK A01 T02270195  RH  082%=      5-min Rain = 0
KCO1 251121Z 12010KT 23/20 A2988 RMK A01 T02270195  RH  082%=      5-min Rain = 0
KCO1 251122Z 12010KT 23/20 A2988 RMK A01 T02270195  RH  082%=      5-min Rain = 0
KCO1 251123Z 12010KT 23/20 A2988 RMK A01 T02270195  RH  082%=      5-min Rain = 0
KCO1 251124Z 12009KT 23/20 A2988 RMK A01 T02270195  RH  082%=      5-min Rain = 0
KCO1 251125Z 11010KT 23/20 A2988 RMK A01 T02270195  RH  082%=      5-min Rain = 0
KCO1 251126Z 11009KT 23/20 A2988 RMK A01 T02270195  RH  082%=      5-min Rain = 0
KCO1 251127Z 11009KT 23/20 A2988 RMK A01 T02270195  RH  082%=      5-min Rain = 0
KCO1 251128Z 12009KT 23/20 A2988 RMK A01 T02270195  RH  082%=      5-min Rain = 0
KCO1 251129Z 11008KT 23/20 A2988 RMK A01 T02270195  RH  082%=      5-min Rain = 0
KCO1 251130Z 11009KT 23/20 A2988 RMK A01 T02270196  RH  082%=      5-min Rain = 0
KCO1 251131Z 11008KT 23/20 A2988 RMK A01 T02270195  RH  082%=      5-min Rain = 0
KCO1 251132Z 11008KT 23/20 A2988 RMK A01 T02270196  RH  082%=      5-min Rain = 0
KCO1 251133Z 12008KT 23/20 A2988 RMK A01 T02270195  RH  082%=      5-min Rain = 0
KCO1 251134Z 12007KT 23/20 A2988 RMK A01 T02270195  RH  082%=      5-min Rain = 0
KCO1 251135Z 11009KT 23/20 A2988 RMK A01 T02270195  RH  083%=      5-min Rain = 0
KCO1 251136Z 11010KT 23/20 A2988 RMK A01 T02270196  RH  083%=      5-min Rain = 0
KCO1 251137Z 12008KT 23/20 A2988 RMK A01 T02270196  RH  083%=      5-min Rain = 0
KCO1 251138Z 12008KT 23/20 A2988 RMK A01 T02270196  RH  083%=      5-min Rain = 0
KCO1 251139Z 12007KT 23/20 A2988 RMK A01 T02270196  RH  083%=      5-min Rain = 0
KCO1 251140Z 11008KT 23/20 A2989 RMK A01 T02270196  RH  083%=      5-min Rain = 0
KCO1 251141Z 12009KT 23/20 A2989 RMK A01 T02260195  RH  083%=      5-min Rain = 0
KCO1 251142Z 12009KT 23/20 A2989 RMK A01 T02260196  RH  083%=      5-min Rain = 0
KCO1 251143Z 12007KT 23/20 A2989 RMK A01 T02260196  RH  083%=      5-min Rain = 0
KCO1 251144Z 12008KT 23/20 A2989 RMK A01 T02260196  RH  083%=      5-min Rain = 0
KCO1 251145Z 11007KT 23/20 A2989 RMK A01 T02260195  RH  083%=      5-min Rain = 0
KCO1 251146Z 12009KT 23/20 A2989 RMK A01 T02260196  RH  083%=      5-min Rain = 0
KCO1 251147Z 12009KT 23/20 A2989 RMK A01 T02260196  RH  083%=      5-min Rain = 0
KCO1 251148Z 12007KT 23/20 A2989 RMK A01 T02260196  RH  083%=      5-min Rain = 0
KCO1 251149Z 12007KT 23/20 A2989 RMK A01 T02260196  RH  083%=      5-min Rain = 0
KCO1 251150Z 12008KT 23/20 A2989 RMK A01 T02270196  RH  083%=      5-min Rain = 0
KCO1 251151Z 11009KT 23/20 A2989 RMK A01 T02260196  RH  083%=      5-min Rain = 0
KCO1 251152Z 11009KT 23/20 A2989 RMK A01 T02260196  RH  083%=      5-min Rain = 0
KCO1 251153Z 12010KT 23/20 A2989 RMK A01 T02260196  RH  083%=      5-min Rain = 0
KCO1 251154Z 12010KT 23/20 A2989 RMK A01 T02260196  RH  083%=      5-min Rain = 0
KCO1 251155Z 12009KT 23/20 A2989 RMK A01 T02270196  RH  083%=      5-min Rain = 0
KCO1 251156Z 12009KT 23/20 A2989 RMK A01 T02260196  RH  083%=      5-min Rain = 0
KCO1 251157Z 12010KT 23/20 A2989 RMK A01 T02260196  RH  083%=      5-min Rain = 0
KCO1 251158Z 12010KT 23/20 A2989 RMK A01 T02260196  RH  083%=      5-min Rain = 0
KCO1 251159Z 12012KT 23/20 A2989 RMK A01 T02270196  RH  083%=      5-min Rain = 0
KCO1 251200Z 12010KT 23/20 A2989 RMK A01 T02270197  RH  083%=      5-min Rain = 0
KCO1 251201Z 12011KT 23/20 A2989 RMK A01 T02270196  RH  083%=      5-min Rain = 0
KCO1 251202Z 12010KT 23/20 A2989 RMK A01 T02280197  RH  083%=      5-min Rain = 0
KCO1 251203Z 12010KT 23/20 A2989 RMK A01 T02280197  RH  083%=      5-min Rain = 0
KCO1 251204Z 12010KT 23/20 A2989 RMK A01 T02280196  RH  083%=      5-min Rain = 0
KCO1 251205Z 12010KT 23/20 A2989 RMK A01 T02280196  RH  083%=      5-min Rain = 0
KCO1 251206Z 12009KT 23/20 A2989 RMK A01 T02280196  RH  083%=      5-min Rain = 0
KCO1 251207Z 12009KT 23/20 A2989 RMK A01 T02280196  RH  083%=      5-min Rain = 0
KCO1 251208Z 12010KT 23/20 A2989 RMK A01 T02280196  RH  083%=      5-min Rain = 0
KCO1 251209Z 12011KT 23/20 A2989 RMK A01 T02280197  RH  083%=      5-min Rain = 0
KCO1 251210Z 12009KT 23/20 A2989 RMK A01 T02280197  RH  082%=      5-min Rain = 0
KCO1 251211Z 12009KT 23/20 A2989 RMK A01 T02280197  RH  082%=      5-min Rain = 0
KCO1 251212Z 12009KT 23/20 A2989 RMK A01 T02290197  RH  082%=      5-min Rain = 0
KCO1 251213Z 12010KT 23/20 A2989 RMK A01 T02290197  RH  082%=      5-min Rain = 0
KCO1 251214Z 13009KT 23/20 A2989 RMK A01 T02280197  RH  082%=      5-min Rain = 0
KCO1 251215Z 12009KT 23/20 A2989 RMK A01 T02290197  RH  082%=      5-min Rain = 0
KCO1 251216Z 13009KT 23/20 A2989 RMK A01 T02290197  RH  082%=      5-min Rain = 0
KCO1 251217Z 13010KT 23/20 A2989 RMK A01 T02290197  RH  082%=      5-min Rain = 0
KCO1 251218Z 12010KT 23/20 A2989 RMK A01 T02290198  RH  082%=      5-min Rain = 0
KCO1 251219Z 12010KT 23/20 A2989 RMK A01 T02290197  RH  082%=      5-min Rain = 0
KCO1 251220Z 12009KT 23/20 A2989 RMK A01 T02300198  RH  082%=      5-min Rain = 0
KCO1 251221Z 12010KT 23/20 A2989 RMK A01 T02300197  RH  082%=      5-min Rain = 0
KCO1 251222Z 13012KT 23/20 A2989 RMK A01 T02300198  RH  082%=      5-min Rain = 0
KCO1 251223Z 12009KT 23/20 A299 RMK A01 T02300198  RH  082%=      5-min Rain = 0
KCO1 251224Z 12011KT 23/20 A299 RMK A01 T02300198  RH  082%=      5-min Rain = 0
KCO1 251225Z 12010KT 23/20 A299 RMK A01 T02300198  RH  082%=      5-min Rain = 0
KCO1 251226Z 12009KT 23/20 A299 RMK A01 T02310198  RH  082%=      5-min Rain = 0
KCO1 251227Z 12011KT 23/20 A299 RMK A01 T02300197  RH  082%=      5-min Rain = 0
KCO1 251228Z 12010KT 23/20 A299 RMK A01 T02310198  RH  082%=      5-min Rain = 0
KCO1 251229Z 12009KT 23/20 A299 RMK A01 T02300198  RH  082%=      5-min Rain = 0
KCO1 251230Z 12010KT 23/20 A299 RMK A01 T02310198  RH  082%=      5-min Rain = 0
KCO1 251231Z 12012KT 23/20 A299 RMK A01 T02310198  RH  082%=      5-min Rain = 0
KCO1 251232Z 12009KT 23/20 A299 RMK A01 T02310198  RH  082%=      5-min Rain = 0
KCO1 251233Z 12008KT 23/20 A299 RMK A01 T02320199  RH  082%=      5-min Rain = 0
KCO1 251234Z 11012KT 23/20 A299 RMK A01 T02320199  RH  082%=      5-min Rain = 0
KCO1 251235Z 12011KT 23/20 A299 RMK A01 T02320198  RH  081%=      5-min Rain = 0
KCO1 251236Z 11009KT 23/20 A299 RMK A01 T02320199  RH  081%=      5-min Rain = 0
KCO1 251237Z 11008KT 23/20 A299 RMK A01 T02320198  RH  081%=      5-min Rain = 0
KCO1 251238Z 12010KT 23/20 A299 RMK A01 T02330199  RH  081%=      5-min Rain = 0
KCO1 251239Z 12009KT 23/20 A299 RMK A01 T02330199  RH  081%=      5-min Rain = 0
KCO1 251240Z 11008KT 23/20 A299 RMK A01 T02330199  RH  081%=      5-min Rain = 0
KCO1 251241Z 11010KT 23/20 A299 RMK A01 T02340199  RH  081%=      5-min Rain = 0
KCO1 251242Z 12009KT 23/20 A299 RMK A01 T02340200  RH  081%=      5-min Rain = 0
KCO1 251243Z 11007KT 23/20 A299 RMK A01 T02340199  RH  081%=      5-min Rain = 0
KCO1 251244Z 12008KT 24/20 A299 RMK A01 T02350200  RH  081%=      5-min Rain = 0
KCO1 251245Z 11008KT 24/20 A299 RMK A01 T02350200  RH  081%=      5-min Rain = 0
KCO1 251246Z 11010KT 24/20 A299 RMK A01 T02360200  RH  080%=      5-min Rain = 0
KCO1 251247Z 12009KT 24/20 A299 RMK A01 T02370200  RH  080%=      5-min Rain = 0
KCO1 251248Z 12011KT 24/20 A299 RMK A01 T02370200  RH  080%=      5-min Rain = 0
KCO1 251249Z 12010KT 24/20 A299 RMK A01 T02370200  RH  080%=      5-min Rain = 0
KCO1 251250Z 12011KT 24/20 A299 RMK A01 T02380201  RH  080%=      5-min Rain = 0
KCO1 251251Z 12011KT 24/20 A299 RMK A01 T02380200  RH  079%=      5-min Rain = 0
KCO1 251252Z 12012KT 24/20 A299 RMK A01 T02380200  RH  079%=      5-min Rain = 0
KCO1 251253Z 12013KT 24/20 A299 RMK A01 T02390201  RH  079%=      5-min Rain = 0
KCO1 251254Z 12013KT 24/20 A299 RMK A01 T02390200  RH  079%=      5-min Rain = 0
KCO1 251255Z 12012KT 24/20 A299 RMK A01 T02400201  RH  079%=      5-min Rain = 0
KCO1 251256Z 12011KT 24/20 A299 RMK A01 T02400201  RH  079%=      5-min Rain = 0
KCO1 251257Z 12011KT 24/20 A2991 RMK A01 T02410201  RH  079%=      5-min Rain = 0
KCO1 251258Z 12011KT 24/20 A2991 RMK A01 T02410201  RH  078%=      5-min Rain = 0
KCO1 251259Z 12011KT 24/20 A2991 RMK A01 T02420202  RH  078%=      5-min Rain = 0
KCO1 251300Z 12014KT 24/20 A2991 RMK A01 T02420201  RH  078%=      5-min Rain = 0
KCO1 251301Z 12013KT 24/20 A2991 RMK A01 T02420201  RH  078%=      5-min Rain = 0
KCO1 251302Z 12013KT 24/20 A2991 RMK A01 T02420201  RH  078%=      5-min Rain = 0
KCO1 251303Z 12015KT 24/20 A299 RMK A01 T02430201  RH  077%=      5-min Rain = 0
KCO1 251304Z 12012KT 24/20 A2991 RMK A01 T02430201  RH  077%=      5-min Rain = 0
KCO1 251305Z 12011KT 24/20 A2991 RMK A01 T02440201  RH  077%=      5-min Rain = 0
KCO1 251306Z 12014KT 24/20 A2991 RMK A01 T02440201  RH  077%=      5-min Rain = 0
KCO1 251307Z 12014KT 24/20 A2991 RMK A01 T02440201  RH  077%=      5-min Rain = 0
KCO1 251308Z 12015KT 25/20 A2991 RMK A01 T02450201  RH  077%=      5-min Rain = 0
KCO1 251309Z 12013KT 25/20 A2991 RMK A01 T02450201  RH  077%=      5-min Rain = 0
KCO1 251310Z 12012KT 25/20 A2991 RMK A01 T02450202  RH  077%=      5-min Rain = 0
KCO1 251311Z 12014KT 25/20 A2991 RMK A01 T02460202  RH  076%=      5-min Rain = 0
KCO1 251312Z 12015KT 25/20 A2991 RMK A01 T02470202  RH  076%=      5-min Rain = 0
KCO1 251313Z 12014KT 25/20 A2991 RMK A01 T02460201  RH  076%=      5-min Rain = 0
KCO1 251314Z 12013KT 25/20 A2991 RMK A01 T02460201  RH  076%=      5-min Rain = 0
KCO1 251315Z 12011KT 25/20 A2991 RMK A01 T02470202  RH  076%=      5-min Rain = 0
KCO1 251316Z 12012KT 25/20 A2991 RMK A01 T02480203  RH  076%=      5-min Rain = 0
KCO1 251317Z 12013KT 25/20 A2991 RMK A01 T02480202  RH  075%=      5-min Rain = 0
KCO1 251318Z 12016KT 25/20 A2991 RMK A01 T02490202  RH  075%=      5-min Rain = 0
KCO1 251319Z 12017KT 25/20 A2992 RMK A01 T02490201  RH  075%=      5-min Rain = 0
KCO1 251320Z 12014KT 25/20 A2992 RMK A01 T02480201  RH  075%=      5-min Rain = 0
KCO1 251321Z 12014KT 25/20 A2992 RMK A01 T02480202  RH  075%=      5-min Rain = 0
KCO1 251322Z 12015KT 25/20 A2992 RMK A01 T02480202  RH  075%=      5-min Rain = 0
KCO1 251323Z 12015KT 25/20 A2991 RMK A01 T02480201  RH  075%=      5-min Rain = 0
KCO1 251324Z 13015KT 25/20 A2991 RMK A01 T02480201  RH  075%=      5-min Rain = 0
KCO1 251325Z 12014KT 25/20 A2991 RMK A01 T02480202  RH  075%=      5-min Rain = 0
KCO1 251326Z 12014KT 25/20 A2991 RMK A01 T02480201  RH  075%=      5-min Rain = 0
KCO1 251327Z 12016KT 25/20 A2991 RMK A01 T02480201  RH  075%=      5-min Rain = 0
KCO1 251328Z 12013KT 25/20 A2991 RMK A01 T02480201  RH  075%=      5-min Rain = 0
KCO1 251329Z 13012KT 25/20 A2992 RMK A01 T02490202  RH  075%=      5-min Rain = 0
KCO1 251330Z 13012KT 25/20 A2992 RMK A01 T02500202  RH  074%=      5-min Rain = 0
KCO1 251331Z 13016KT 25/20 A2992 RMK A01 T02510202  RH  074%=      5-min Rain = 0
KCO1 251332Z 13013KT 25/20 A2992 RMK A01 T02500201  RH  074%=      5-min Rain = 0
KCO1 251333Z 12013KT 25/20 A2992 RMK A01 T02500202  RH  075%=      5-min Rain = 0
KCO1 251334Z 13015KT 25/20 A2992 RMK A01 T02500201  RH  074%=      5-min Rain = 0
KCO1 251335Z 12015KT 25/20 A2992 RMK A01 T02490201  RH  074%=      5-min Rain = 0
KCO1 251336Z 12016KT 25/20 A2992 RMK A01 T02490201  RH  075%=      5-min Rain = 0
KCO1 251337Z 12014KT 25/20 A2992 RMK A01 T02490201  RH  075%=      5-min Rain = 0
KCO1 251338Z 12015KT 25/20 A2992 RMK A01 T02490201  RH  075%=      5-min Rain = 0
KCO1 251339Z 13014KT 25/20 A2992 RMK A01 T02490201  RH  074%=      5-min Rain = 0
KCO1 251340Z 13012KT 25/20 A2992 RMK A01 T02490201  RH  074%=      5-min Rain = 0
KCO1 251341Z 13012KT 25/20 A2992 RMK A01 T02500201  RH  074%=      5-min Rain = 0
KCO1 251342Z 13016KT 25/20 A2992 RMK A01 T02510201  RH  074%=      5-min Rain = 0
KCO1 251343Z 13016KT 25/20 A2992 RMK A01 T02510201  RH  074%=      5-min Rain = 0
KCO1 251344Z 13015KT 25/20 A2992 RMK A01 T02510201  RH  074%=      5-min Rain = 0
KCO1 251345Z 13014KT 25/20 A2992 RMK A01 T02510201  RH  074%=      5-min Rain = 0
KCO1 251346Z 13014KT 25/20 A2992 RMK A01 T02510202  RH  074%=      5-min Rain = 0
KCO1 251347Z 13013KT 25/20 A2993 RMK A01 T02520202  RH  074%=      5-min Rain = 0
KCO1 251348Z 12013KT 25/20 A2993 RMK A01 T02530202  RH  073%=      5-min Rain = 0
KCO1 251349Z 12016KT 25/20 A2993 RMK A01 T02530202  RH  073%=      5-min Rain = 0
KCO1 251350Z 12016KT 25/20 A2993 RMK A01 T02530201  RH  073%=      5-min Rain = 0
KCO1 251351Z 12016G21KT 25/20 A2993 RMK A01 T02520201  RH  073%=      5-min Rain = 0
KCO1 251352Z 12016KT 25/20 A2993 RMK A01 T02520201  RH  073%=      5-min Rain = 0
KCO1 251353Z 13017KT 25/20 A2993 RMK A01 T02520201  RH  073%=      5-min Rain = 0
KCO1 251354Z 13013KT 25/20 A2993 RMK A01 T02520201  RH  073%=      5-min Rain = 0
KCO1 251355Z 12015KT 25/20 A2993 RMK A01 T02530202  RH  073%=      5-min Rain = 0
KCO1 251356Z 12014KT 25/20 A2993 RMK A01 T02540201  RH  073%=      5-min Rain = 0
KCO1 251357Z 12014KT 25/20 A2993 RMK A01 T02530201  RH  073%=      5-min Rain = 0
KCO1 251358Z 13017KT 25/20 A2993 RMK A01 T02530201  RH  073%=      5-min Rain = 0
KCO1 251359Z 13014KT 25/20 A2993 RMK A01 T02530201  RH  073%=      5-min Rain = 0
KCO1 251400Z 13015KT 25/20 A2993 RMK A01 T02530201  RH  073%=      5-min Rain = 0
KCO1 251401Z 13013KT 25/20 A2993 RMK A01 T02530201  RH  073%=      5-min Rain = 0
KCO1 251402Z 13016KT 25/20 A2993 RMK A01 T02540201  RH  072%=      5-min Rain = 0
KCO1 251403Z 13013KT 25/20 A2993 RMK A01 T02540201  RH  072%=      5-min Rain = 0
KCO1 251404Z 13015KT 25/20 A2993 RMK A01 T02540201  RH  072%=      5-min Rain = 0
KCO1 251405Z 13014KT 25/20 A2993 RMK A01 T02540201  RH  072%=      5-min Rain = 0
KCO1 251406Z 12013KT 25/20 A2993 RMK A01 T02540201  RH  072%=      5-min Rain = 0
KCO1 251407Z 13016KT 26/20 A2993 RMK A01 T02550201  RH  072%=      5-min Rain = 0
KCO1 251408Z 13016KT 26/20 A2993 RMK A01 T02550201  RH  072%=      5-min Rain = 0
KCO1 251409Z 13013KT 26/20 A2993 RMK A01 T02550200  RH  072%=      5-min Rain = 0
KCO1 251410Z 12016KT 26/20 A2993 RMK A01 T02560202  RH  072%=      5-min Rain = 0
KCO1 251411Z 12016KT 26/20 A2993 RMK A01 T02570201  RH  071%=      5-min Rain = 0
KCO1 251412Z 13015KT 26/20 A2993 RMK A01 T02570201  RH  071%=      5-min Rain = 0
KCO1 251413Z 12016KT 26/20 A2993 RMK A01 T02560201  RH  071%=      5-min Rain = 0
KCO1 251414Z 13013KT 26/20 A2993 RMK A01 T02560201  RH  072%=      5-min Rain = 0
KCO1 251415Z 13015KT 26/20 A2993 RMK A01 T02570202  RH  072%=      5-min Rain = 0
KCO1 251416Z 13016KT 26/20 A2993 RMK A01 T02580201  RH  071%=      5-min Rain = 0
KCO1 251417Z 13015KT 26/20 A2993 RMK A01 T02590202  RH  071%=      5-min Rain = 0
KCO1 251418Z 14014KT 26/20 A2993 RMK A01 T02600201  RH  070%=      5-min Rain = 0
KCO1 251419Z 14013KT 26/20 A2993 RMK A01 T02600201  RH  070%=      5-min Rain = 0
KCO1 251420Z 13015KT 26/20 A2993 RMK A01 T02600202  RH  070%=      5-min Rain = 0
KCO1 251421Z 12015KT 26/20 A2993 RMK A01 T02600201  RH  070%=      5-min Rain = 0
KCO1 251422Z 12014KT 26/20 A2993 RMK A01 T02590201  RH  070%=      5-min Rain = 0
KCO1 251423Z 13014KT 26/20 A2993 RMK A01 T02590201  RH  070%=      5-min Rain = 0
KCO1 251424Z 14014KT 26/20 A2993 RMK A01 T02590201  RH  070%=      5-min Rain = 0
KCO1 251425Z 13015KT 26/20 A2993 RMK A01 T02600201  RH  070%=      5-min Rain = 0
KCO1 251426Z 14016KT 26/20 A2993 RMK A01 T02610201  RH  070%=      5-min Rain = 0
KCO1 251427Z 13012KT 26/20 A2993 RMK A01 T02610202  RH  070%=      5-min Rain = 0
KCO1 251428Z 14012KT 26/20 A2993 RMK A01 T02630203  RH  069%=      5-min Rain = 0
KCO1 251429Z 13013KT 27/20 A2993 RMK A01 T02650202  RH  068%=      5-min Rain = 0
KCO1 251430Z 13015KT 27/20 A2993 RMK A01 T02650202  RH  068%=      5-min Rain = 0
KCO1 251431Z 12017KT 27/20 A2993 RMK A01 T02650202  RH  068%=      5-min Rain = 0
KCO1 251432Z 12018KT 26/20 A2993 RMK A01 T02640201  RH  068%=      5-min Rain = 0
KCO1 251433Z 12016KT 26/20 A2993 RMK A01 T02630201  RH  069%=      5-min Rain = 0
KCO1 251434Z 12017KT 26/20 A2993 RMK A01 T02630201  RH  069%=      5-min Rain = 0
KCO1 251435Z 12015KT 26/20 A2993 RMK A01 T02630201  RH  069%=      5-min Rain = 0
KCO1 251436Z 13015KT 26/20 A2993 RMK A01 T02630202  RH  069%=      5-min Rain = 0
KCO1 251437Z 12015KT 26/20 A2993 RMK A01 T02640202  RH  069%=      5-min Rain = 0
KCO1 251438Z 12011KT 27/20 A2993 RMK A01 T02650203  RH  068%=      5-min Rain = 0
KCO1 251439Z 12015KT 27/20 A2993 RMK A01 T02670203  RH  068%=      5-min Rain = 0
KCO1 251440Z 13016KT 27/20 A2993 RMK A01 T02670202  RH  067%=      5-min Rain = 0
KCO1 251441Z 13014KT 27/20 A2993 RMK A01 T02670202  RH  067%=      5-min Rain = 0
KCO1 251442Z 13012KT 27/20 A2993 RMK A01 T02670202  RH  067%=      5-min Rain = 0
KCO1 251443Z 13015KT 27/20 A2993 RMK A01 T02670201  RH  067%=      5-min Rain = 0
KCO1 251444Z 13013KT 27/20 A2993 RMK A01 T02670201  RH  067%=      5-min Rain = 0
KCO1 251445Z 12015KT 27/20 A2994 RMK A01 T02680202  RH  067%=      5-min Rain = 0
KCO1 251446Z 13015KT 27/20 A2993 RMK A01 T02680201  RH  067%=      5-min Rain = 0
KCO1 251447Z 13013KT 27/20 A2994 RMK A01 T02680202  RH  067%=      5-min Rain = 0
KCO1 251448Z 13015KT 27/20 A2994 RMK A01 T02680201  RH  067%=      5-min Rain = 0
KCO1 251449Z 13012KT 27/20 A2994 RMK A01 T02680201  RH  067%=      5-min Rain = 0
KCO1 251450Z 12013KT 27/20 A2994 RMK A01 T02690203  RH  067%=      5-min Rain = 0
KCO1 251451Z 12014KT 27/20 A2994 RMK A01 T02700203  RH  066%=      5-min Rain = 0
KCO1 251452Z 12013G18KT 27/20 A2994 RMK A01 T02710203  RH  066%=      5-min Rain = 0
KCO1 251453Z 12015KT 27/20 A2994 RMK A01 T02720202  RH  066%=      5-min Rain = 0
KCO1 251454Z 12016KT 27/20 A2994 RMK A01 T02710202  RH  066%=      5-min Rain = 0
KCO1 251455Z 12014KT 27/20 A2994 RMK A01 T02700202  RH  066%=      5-min Rain = 0
KCO1 251456Z 13015KT 27/20 A2994 RMK A01 T02710203  RH  066%=      5-min Rain = 0
KCO1 251457Z 14016KT 27/20 A2994 RMK A01 T02720200  RH  065%=      5-min Rain = 0
KCO1 251458Z 14014KT 27/20 A2994 RMK A01 T02710199  RH  065%=      5-min Rain = 0
KCO1 251459Z 14012KT 27/20 A2994 RMK A01 T02710200  RH  065%=      5-min Rain = 0
KCO1 251500Z 12012KT 27/20 A2994 RMK A01 T02720202  RH  065%=      5-min Rain = 0
KCO1 251501Z 13015KT 27/20 A2994 RMK A01 T02740202  RH  065%=      5-min Rain = 0
KCO1 251502Z 13013KT 28/20 A2994 RMK A01 T02750201  RH  064%=      5-min Rain = 0
KCO1 251503Z 13012KT 28/20 A2994 RMK A01 T02750202  RH  064%=      5-min Rain = 0
KCO1 251504Z 13014G19KT 28/20 A2994 RMK A01 T02760202  RH  064%=      5-min Rain = 0
KCO1 251505Z 13016KT 28/20 A2994 RMK A01 T02760200  RH  063%=      5-min Rain = 0
KCO1 251506Z 13015KT 27/20 A2994 RMK A01 T02740199  RH  064%=      5-min Rain = 0
KCO1 251507Z 13014KT 27/20 A2994 RMK A01 T02740199  RH  064%=      5-min Rain = 0
KCO1 251508Z 14012KT 27/20 A2994 RMK A01 T02740200  RH  064%=      5-min Rain = 0
KCO1 251509Z 13016KT 28/20 A2994 RMK A01 T02750201  RH  064%=      5-min Rain = 0
KCO1 251510Z 12018KT 28/20 A2994 RMK A01 T02750200  RH  063%=      5-min Rain = 0
KCO1 251511Z 14016KT 28/20 A2994 RMK A01 T02750200  RH  064%=      5-min Rain = 0
KCO1 251512Z 13014KT 28/20 A2994 RMK A01 T02750199  RH  063%=      5-min Rain = 0
KCO1 251513Z 13015KT 28/20 A2994 RMK A01 T02760200  RH  063%=      5-min Rain = 0
KCO1 251514Z 13015KT 28/20 A2994 RMK A01 T02760200  RH  063%=      5-min Rain = 0
KCO1 251515Z 14013KT 28/20 A2994 RMK A01 T02760199  RH  063%=      5-min Rain = 0
KCO1 251516Z 14015KT 28/20 A2994 RMK A01 T02760199  RH  063%=      5-min Rain = 0
KCO1 251517Z 13012KT 28/20 A2994 RMK A01 T02770200  RH  063%=      5-min Rain = 0
KCO1 251518Z 13015KT 28/20 A2994 RMK A01 T02790200  RH  062%=      5-min Rain = 0
KCO1 251519Z 12013KT 28/20 A2994 RMK A01 T02780200  RH  062%=      5-min Rain = 0
KCO1 251520Z 13011KT 28/20 A2994 RMK A01 T02780201  RH  063%=      5-min Rain = 0
KCO1 251521Z 13015KT 28/20 A2994 RMK A01 T02790201  RH  063%=      5-min Rain = 0
KCO1 251522Z 12015KT 28/20 A2994 RMK A01 T02790200  RH  062%=      5-min Rain = 0
KCO1 251523Z 13012KT 28/20 A2994 RMK A01 T02770200  RH  063%=      5-min Rain = 0
KCO1 251524Z 13017KT 28/20 A2994 RMK A01 T02770200  RH  063%=      5-min Rain = 0
KCO1 251525Z 14014KT 28/20 A2994 RMK A01 T02780199  RH  062%=      5-min Rain = 0
KCO1 251526Z 14014KT 28/20 A2994 RMK A01 T02760198  RH  063%=      5-min Rain = 0
KCO1 251527Z 13015KT 28/20 A2994 RMK A01 T02750198  RH  063%=      5-min Rain = 0
KCO1 251528Z 13016KT 28/20 A2994 RMK A01 T02750199  RH  063%=      5-min Rain = 0
KCO1 251529Z 14015KT 28/20 A2994 RMK A01 T02760198  RH  063%=      5-min Rain = 0
KCO1 251530Z 14013KT 28/20 A2994 RMK A01 T02760199  RH  063%=      5-min Rain = 0
KCO1 251531Z 14013KT 28/20 A2994 RMK A01 T02790200  RH  062%=      5-min Rain = 0
KCO1 251532Z 13014KT 28/20 A2994 RMK A01 T02800200  RH  062%=      5-min Rain = 0
KCO1 251533Z 14013KT 28/20 A2994 RMK A01 T02810198  RH  061%=      5-min Rain = 0
KCO1 251534Z 13013KT 28/20 A2994 RMK A01 T02810200  RH  062%=      5-min Rain = 0
KCO1 251535Z 14016KT 28/20 A2994 RMK A01 T02810200  RH  061%=      5-min Rain = 0
KCO1 251536Z 13015KT 28/20 A2994 RMK A01 T02820199  RH  061%=      5-min Rain = 0
KCO1 251537Z 13016KT 28/20 A2994 RMK A01 T02810199  RH  061%=      5-min Rain = 0
KCO1 251538Z 13015KT 28/20 A2994 RMK A01 T02800199  RH  061%=      5-min Rain = 0
KCO1 251539Z 13013KT 28/20 A2994 RMK A01 T02800198  RH  061%=      5-min Rain = 0
KCO1 251540Z 12015KT 28/20 A2994 RMK A01 T02800199  RH  061%=      5-min Rain = 0
KCO1 251541Z 12015KT 28/20 A2994 RMK A01 T02800199  RH  062%=      5-min Rain = 0
KCO1 251542Z 12012G17KT 28/20 A2994 RMK A01 T02780199  RH  062%=      5-min Rain = 0
KCO1 251543Z 12015KT 28/20 A2994 RMK A01 T02780200  RH  062%=      5-min Rain = 0
KCO1 251544Z 12013KT 28/20 A2994 RMK A01 T02790200  RH  062%=      5-min Rain = 0
KCO1 251545Z 13012KT 28/20 A2994 RMK A01 T02800201  RH  062%=      5-min Rain = 0
KCO1 251546Z 12014KT 28/20 A2994 RMK A01 T02820201  RH  061%=      5-min Rain = 0
KCO1 251547Z 12013KT 28/20 A2994 RMK A01 T02840200  RH  060%=      5-min Rain = 0
KCO1 251548Z 13012KT 28/20 A2994 RMK A01 T02830199  RH  060%=      5-min Rain = 0
KCO1 251549Z 12013KT 28/20 A2994 RMK A01 T02820199  RH  061%=      5-min Rain = 0
KCO1 251550Z 14015KT 28/20 A2994 RMK A01 T02830199  RH  061%=      5-min Rain = 0
KCO1 251551Z 13016KT 28/20 A2994 RMK A01 T02840200  RH  060%=      5-min Rain = 0
KCO1 251552Z 14014KT 28/20 A2994 RMK A01 T02830199  RH  060%=      5-min Rain = 0
KCO1 251553Z 14013KT 28/20 A2994 RMK A01 T02830200  RH  061%=      5-min Rain = 0
KCO1 251554Z 14011KT 29/20 A2994 RMK A01 T02850201  RH  061%=      5-min Rain = 0
KCO1 251555Z 13012KT 29/20 A2994 RMK A01 T02870203  RH  060%=      5-min Rain = 0
KCO1 251556Z 14014KT 29/20 A2994 RMK A01 T02910202  RH  059%=      5-min Rain = 0
KCO1 251557Z 13013KT 29/20 A2994 RMK A01 T02910200  RH  058%=      5-min Rain = 0
KCO1 251558Z 12013KT 29/20 A2994 RMK A01 T02890201  RH  059%=      5-min Rain = 0
KCO1 251559Z 13014KT 29/20 A2994 RMK A01 T02870199  RH  059%=      5-min Rain = 0
KCO1 251600Z 13012KT 29/20 A2994 RMK A01 T02870199  RH  059%=      5-min Rain = 0
KCO1 251601Z 13011KT 29/20 A2994 RMK A01 T02860198  RH  059%=      5-min Rain = 0
KCO1 251602Z 12013KT 29/20 A2994 RMK A01 T02860200  RH  060%=      5-min Rain = 0
KCO1 251603Z 14011KT 29/20 A2994 RMK A01 T02850200  RH  060%=      5-min Rain = 0
KCO1 251604Z 14011KT 29/20 A2994 RMK A01 T02860198  RH  059%=      5-min Rain = 0
KCO1 251605Z 14009KT 29/20 A2994 RMK A01 T02860200  RH  060%=      5-min Rain = 0
KCO1 251606Z 14012KT 29/20 A2994 RMK A01 T02860202  RH  060%=      5-min Rain = 0
KCO1 251607Z 13011KT 29/20 A2994 RMK A01 T02880200  RH  059%=      5-min Rain = 0
KCO1 251608Z 14010KT 29/20 A2994 RMK A01 T02870200  RH  059%=      5-min Rain = 0
KCO1 251609Z 14011KT 29/20 A2994 RMK A01 T02860200  RH  060%=      5-min Rain = 0
KCO1 251610Z 15011KT 29/20 A2994 RMK A01 T02870200  RH  059%=      5-min Rain = 0
KCO1 251611Z 15011KT 29/20 A2994 RMK A01 T02880199  RH  059%=      5-min Rain = 0
KCO1 251612Z 13012KT 29/20 A2994 RMK A01 T02890201  RH  059%=      5-min Rain = 0
KCO1 251613Z 12014KT 29/20 A2994 RMK A01 T02900201  RH  059%=      5-min Rain = 0
KCO1 251614Z 14012KT 29/20 A2994 RMK A01 T02900200  RH  058%=      5-min Rain = 0
KCO1 251615Z 14011KT 29/20 A2994 RMK A01 T02880201  RH  059%=      5-min Rain = 0
KCO1 251616Z 15012KT 29/20 A2994 RMK A01 T02880200  RH  059%=      5-min Rain = 0
KCO1 251617Z 13012KT 29/20 A2994 RMK A01 T02870200  RH  059%=      5-min Rain = 0
KCO1 251618Z 12014KT 29/20 A2994 RMK A01 T02870200  RH  059%=      5-min Rain = 0
KCO1 251619Z 13011KT 29/20 A2994 RMK A01 T02870200  RH  060%=      5-min Rain = 0
KCO1 251620Z 13011G17KT 29/20 A2994 RMK A01 T02890201  RH  059%=      5-min Rain = 0
KCO1 251621Z 13013KT 29/20 A2994 RMK A01 T02910201  RH  058%=      5-min Rain = 0
KCO1 251622Z 12012KT 29/20 A2994 RMK A01 T02900201  RH  059%=      5-min Rain = 0
KCO1 251623Z 12014KT 29/20 A2994 RMK A01 T02900200  RH  058%=      5-min Rain = 0
KCO1 251624Z 13013KT 29/20 A2994 RMK A01 T02910201  RH  058%=      5-min Rain = 0
KCO1 251625Z 11014KT 29/20 A2994 RMK A01 T02930203  RH  058%=      5-min Rain = 0
KCO1 251626Z 12013KT 29/20 A2994 RMK A01 T02940202  RH  058%=      5-min Rain = 0
KCO1 251627Z 12011KT 29/20 A2994 RMK A01 T02910201  RH  058%=      5-min Rain = 0
KCO1 251628Z 13013KT 29/20 A2994 RMK A01 T02910201  RH  059%=      5-min Rain = 0
KCO1 251629Z 13013KT 29/20 A2994 RMK A01 T02920199  RH  057%=      5-min Rain = 0
KCO1 251630Z 12015KT 29/20 A2994 RMK A01 T02930200  RH  057%=      5-min Rain = 0
KCO1 251631Z 13015KT 29/20 A2994 RMK A01 T02940200  RH  057%=      5-min Rain = 0
KCO1 251632Z 12013KT 30/20 A2994 RMK A01 T02950199  RH  056%=      5-min Rain = 0
KCO1 251633Z 14013KT 30/20 A2994 RMK A01 T02950200  RH  057%=      5-min Rain = 0
KCO1 251634Z 13015KT 30/20 A2994 RMK A01 T02950200  RH  057%=      5-min Rain = 0
KCO1 251635Z 14014KT 30/20 A2994 RMK A01 T02950199  RH  056%=      5-min Rain = 0
KCO1 251636Z 14013KT 30/20 A2994 RMK A01 T02960199  RH  056%=      5-min Rain = 0
KCO1 251637Z 14013KT 30/20 A2994 RMK A01 T02960202  RH  057%=      5-min Rain = 0
KCO1 251638Z 13014KT 30/20 A2994 RMK A01 T02970202  RH  057%=      5-min Rain = 0
KCO1 251639Z 13016KT 30/20 A2994 RMK A01 T02980201  RH  056%=      5-min Rain = 0
KCO1 251640Z 12012KT 30/20 A2994 RMK A01 T02950201  RH  057%=      5-min Rain = 0
KCO1 251641Z 11012KT 30/20 A2994 RMK A01 T02950202  RH  058%=      5-min Rain = 0
KCO1 251642Z 12013KT 30/20 A2994 RMK A01 T02960202  RH  057%=      5-min Rain = 0
KCO1 251643Z 13012KT 30/20 A2994 RMK A01 T02990202  RH  056%=      5-min Rain = 0
KCO1 251644Z 11011KT 30/20 A2994 RMK A01 T02990201  RH  056%=      5-min Rain = 0
KCO1 251645Z 12014KT 30/20 A2994 RMK A01 T02960202  RH  057%=      5-min Rain = 0
KCO1 251646Z 12013KT 30/20 A2994 RMK A01 T02950201  RH  057%=      5-min Rain = 0
KCO1 251647Z 11013KT 29/20 A2994 RMK A01 T02930200  RH  057%=      5-min Rain = 0
KCO1 251648Z 13013KT 29/20 A2994 RMK A01 T02930201  RH  058%=      5-min Rain = 0
KCO1 251649Z 13009KT 29/20 A2994 RMK A01 T02940203  RH  058%=      5-min Rain = 0
KCO1 251650Z 11011KT 30/20 A2994 RMK A01 T02960203  RH  057%=      5-min Rain = 0
KCO1 251651Z 12012KT 30/20 A2994 RMK A01 T02970202  RH  057%=      5-min Rain = 0
KCO1 251652Z 13013G19KT 30/20 A2994 RMK A01 T02980202  RH  056%=      5-min Rain = 0
KCO1 251653Z 12015KT 30/20 A2994 RMK A01 T03000202  RH  056%=      5-min Rain = 0
KCO1 251654Z 12015KT 30/20 A2994 RMK A01 T02990202  RH  056%=      5-min Rain = 0
KCO1 251655Z 10013KT 30/20 A2994 RMK A01 T02970200  RH  056%=      5-min Rain = 0
KCO1 251656Z 10013KT 30/20 A2994 RMK A01 T02960201  RH  057%=      5-min Rain = 0
KCO1 251657Z 11013G18KT 30/20 A2994 RMK A01 T02970202  RH  057%=      5-min Rain = 0
KCO1 251658Z 13012KT 30/20 A2994 RMK A01 T02980202  RH  057%=      5-min Rain = 0
KCO1 251659Z 13012G17KT 30/20 A2994 RMK A01 T02980202  RH  056%=      5-min Rain = 0
KCO1 251700Z 12013KT 30/20 A2994 RMK A01 T02990202  RH  056%=      5-min Rain = 0
KCO1 251701Z 11011KT 30/20 A2994 RMK A01 T02970201  RH  056%=      5-min Rain = 0
KCO1 251702Z 11008KT 30/20 A2994 RMK A01 T02960203  RH  057%=      5-min Rain = 0
KCO1 251703Z 11012KT 30/20 A2994 RMK A01 T02960203  RH  057%=      5-min Rain = 0
KCO1 251704Z 12015KT 30/20 A2994 RMK A01 T02960201  RH  057%=      5-min Rain = 0
KCO1 251705Z 12015KT 29/20 A2994 RMK A01 T02940199  RH  057%=      5-min Rain = 0
KCO1 251706Z 12014KT 29/20 A2994 RMK A01 T02910200  RH  058%=      5-min Rain = 0
KCO1 251707Z 12016KT 29/20 A2994 RMK A01 T02900200  RH  058%=      5-min Rain = 0
KCO1 251708Z 12013KT 29/20 A2994 RMK A01 T02900199  RH  058%=      5-min Rain = 0
KCO1 251709Z 11012KT 29/20 A2994 RMK A01 T02920201  RH  058%=      5-min Rain = 0
KCO1 251710Z 12013KT 30/20 A2994 RMK A01 T02970204  RH  058%=      5-min Rain = 0
KCO1 251711Z 12013KT 30/20 A2994 RMK A01 T02990203  RH  056%=      5-min Rain = 0
KCO1 251712Z 11012KT 30/20 A2994 RMK A01 T02990202  RH  056%=      5-min Rain = 0
KCO1 251713Z 12013KT 30/20 A2994 RMK A01 T02990202  RH  056%=      5-min Rain = 0
KCO1 251714Z 12012KT 30/20 A2994 RMK A01 T02970201  RH  057%=      5-min Rain = 0
KCO1 251715Z 12015KT 30/20 A2994 RMK A01 T02960202  RH  057%=      5-min Rain = 0
KCO1 251716Z 12013KT 30/20 A2994 RMK A01 T02970200  RH  056%=      5-min Rain = 0
KCO1 251717Z 10014KT 30/20 A2994 RMK A01 T02960202  RH  057%=      5-min Rain = 0
KCO1 251718Z 10012KT 30/20 A2994 RMK A01 T02950202  RH  057%=      5-min Rain = 0
KCO1 251719Z 10018KT 30/20 A2994 RMK A01 T02950202  RH  057%=      5-min Rain = 0
KCO1 251720Z 10016KT 30/20 A2994 RMK A01 T02960202  RH  057%=      5-min Rain = 0
KCO1 251721Z 11016KT 30/20 A2994 RMK A01 T02970201  RH  056%=      5-min Rain = 0
KCO1 251722Z 11013KT 30/20 A2994 RMK A01 T02970203  RH  057%=      5-min Rain = 0
KCO1 251723Z 10015KT 30/20 A2994 RMK A01 T02970203  RH  057%=      5-min Rain = 0
KCO1 251724Z 11015KT 30/20 A2994 RMK A01 T02970202  RH  057%=      5-min Rain = 0
KCO1 251725Z 11016KT 30/20 A2994 RMK A01 T02970202  RH  057%=      5-min Rain = 0
KCO1 251726Z 10016KT 30/20 A2994 RMK A01 T02960202  RH  057%=      5-min Rain = 0
KCO1 251727Z 11016KT 30/20 A2994 RMK A01 T02970202  RH  057%=      5-min Rain = 0
KCO1 251728Z 11014KT 30/20 A2994 RMK A01 T02970203  RH  057%=      5-min Rain = 0
KCO1 251729Z 12014KT 30/20 A2994 RMK A01 T03000203  RH  056%=      5-min Rain = 0
KCO1 251730Z 12015KT 30/20 A2994 RMK A01 T03020203  RH  055%=      5-min Rain = 0
KCO1 251731Z 11013KT 30/20 A2994 RMK A01 T03010203  RH  056%=      5-min Rain = 0
KCO1 251732Z 11013G18KT 30/20 A2994 RMK A01 T02990204  RH  056%=      5-min Rain = 0
KCO1 251733Z 11014KT 30/20 A2994 RMK A01 T02990202  RH  056%=      5-min Rain = 0
KCO1 251734Z 11014G19KT 30/20 A2994 RMK A01 T02980203  RH  057%=      5-min Rain = 0
KCO1 251735Z 11016KT 30/20 A2994 RMK A01 T02980202  RH  056%=      5-min Rain = 0
KCO1 251736Z 12015KT 30/20 A2994 RMK A01 T02970201  RH  056%=      5-min Rain = 0
KCO1 251737Z 13013KT 30/20 A2993 RMK A01 T02970201  RH  056%=      5-min Rain = 0
KCO1 251738Z 12016G21KT 30/20 A2993 RMK A01 T02970202  RH  057%=      5-min Rain = 0
KCO1 251739Z 11013KT 30/20 A2993 RMK A01 T02970203  RH  057%=      5-min Rain = 0
KCO1 251740Z 11015G20KT 30/20 A2993 RMK A01 T02960202  RH  057%=      5-min Rain = 0
KCO1 251741Z 11015KT 30/20 A2993 RMK A01 T02950202  RH  057%=      5-min Rain = 0
KCO1 251742Z 10014KT 30/20 A2993 RMK A01 T02950203  RH  058%=      5-min Rain = 0
KCO1 251743Z 10017KT 30/20 A2993 RMK A01 T02970203  RH  057%=      5-min Rain = 0
KCO1 251744Z 11013G18KT 30/20 A2993 RMK A01 T02970202  RH  057%=      5-min Rain = 0
KCO1 251745Z 10013KT 30/21 A2993 RMK A01 T02980205  RH  057%=      5-min Rain = 0
KCO1 251746Z 11015KT 30/20 A2993 RMK A01 T03020204  RH  056%=      5-min Rain = 0
KCO1 251747Z 11015KT 30/20 A2993 RMK A01 T03020204  RH  056%=      5-min Rain = 0
KCO1 251748Z 11013KT 30/20 A2993 RMK A01 T03010203  RH  056%=      5-min Rain = 0
KCO1 251749Z 11016KT 30/20 A2993 RMK A01 T03010203  RH  056%=      5-min Rain = 0
KCO1 251750Z 09014KT 30/20 A2993 RMK A01 T03010203  RH  056%=      5-min Rain = 0
KCO1 251751Z 10012KT 30/20 A2993 RMK A01 T03000204  RH  056%=      5-min Rain = 0
KCO1 251752Z 11016G21KT 30/20 A2993 RMK A01 T03010203  RH  056%=      5-min Rain = 0
KCO1 251753Z 12014KT 30/20 A2993 RMK A01 T03010203  RH  056%=      5-min Rain = 0
KCO1 251754Z 12012KT 30/21 A2993 RMK A01 T03000205  RH  056%=      5-min Rain = 0
KCO1 251755Z 11016KT 30/20 A2993 RMK A01 T03040204  RH  055%=      5-min Rain = 0
KCO1 251756Z 11017KT 31/20 A2993 RMK A01 T03050203  RH  054%=      5-min Rain = 0
KCO1 251757Z 13014KT 31/20 A2993 RMK A01 T03060203  RH  054%=      5-min Rain = 0
KCO1 251758Z 12013KT 31/20 A2993 RMK A01 T03060203  RH  054%=      5-min Rain = 0
KCO1 251759Z 10015G20KT 31/20 A2993 RMK A01 T03060203  RH  054%=      5-min Rain = 0
KCO1 251800Z 11016KT 31/20 A2993 RMK A01 T03060202  RH  054%=      5-min Rain = 0
KCO1 251801Z 11017KT 31/20 A2993 RMK A01 T03060203  RH  054%=      5-min Rain = 0
KCO1 251802Z 12015KT 31/20 A2993 RMK A01 T03050202  RH  054%=      5-min Rain = 0
KCO1 251803Z 12016G21KT 30/20 A2993 RMK A01 T03030202  RH  055%=      5-min Rain = 0
KCO1 251804Z 11017KT 30/20 A2993 RMK A01 T03030202  RH  055%=      5-min Rain = 0
KCO1 251805Z 11014KT 30/20 A2993 RMK A01 T03040203  RH  055%=      5-min Rain = 0
KCO1 251806Z 11015KT 31/20 A2993 RMK A01 T03070204  RH  054%=      5-min Rain = 0
KCO1 251807Z 11015G20KT 31/20 A2993 RMK A01 T03080203  RH  054%=      5-min Rain = 0
KCO1 251808Z 11015KT 31/20 A2993 RMK A01 T03090204  RH  053%=      5-min Rain = 0
KCO1 251809Z 11014KT 31/20 A2993 RMK A01 T03090203  RH  053%=      5-min Rain = 0
KCO1 251810Z 11011KT 31/20 A2993 RMK A01 T03090204  RH  053%=      5-min Rain = 0
KCO1 251811Z 12014KT 31/20 A2993 RMK A01 T03090203  RH  053%=      5-min Rain = 0
KCO1 251812Z 11015KT 31/20 A2993 RMK A01 T03100203  RH  053%=      5-min Rain = 0
KCO1 251813Z 11016KT 31/20 A2992 RMK A01 T03120204  RH  053%=      5-min Rain = 0
KCO1 251814Z 12017KT 31/20 A2992 RMK A01 T03120202  RH  052%=      5-min Rain = 0
KCO1 251815Z 11016KT 31/20 A2992 RMK A01 T03100201  RH  052%=      5-min Rain = 0
KCO1 251816Z 11014G20KT 31/20 A2992 RMK A01 T03070201  RH  053%=      5-min Rain = 0
KCO1 251817Z 11012KT 31/20 A2992 RMK A01 T03070202  RH  053%=      5-min Rain = 0
KCO1 251818Z 10013G18KT 31/20 A2992 RMK A01 T03090204  RH  054%=      5-min Rain = 0
KCO1 251819Z 11013G18KT 31/20 A2992 RMK A01 T03120203  RH  052%=      5-min Rain = 0
KCO1 251820Z 11011KT 31/20 A2992 RMK A01 T03110204  RH  053%=      5-min Rain = 0
KCO1 251821Z 11018KT 31/20 A2991 RMK A01 T03100202  RH  052%=      5-min Rain = 0
KCO1 251822Z 12017KT 31/20 A2991 RMK A01 T03060199  RH  053%=      5-min Rain = 0
KCO1 251823Z 11014KT 30/20 A2991 RMK A01 T03020198  RH  054%=      5-min Rain = 0
KCO1 251824Z 12015G22KT 30/20 A2991 RMK A01 T02990199  RH  055%=      5-min Rain = 0
KCO1 251825Z 11017KT 30/20 A2991 RMK A01 T02990198  RH  055%=      5-min Rain = 0
KCO1 251826Z 09013KT 30/20 A2991 RMK A01 T02970198  RH  055%=      5-min Rain = 0
KCO1 251827Z 10014KT 30/20 A2991 RMK A01 T02960197  RH  056%=      5-min Rain = 0
KCO1 251828Z 10015KT 29/20 A299 RMK A01 T02940198  RH  056%=      5-min Rain = 0
KCO1 251829Z 11015KT 29/20 A299 RMK A01 T02940198  RH  056%=      5-min Rain = 0
KCO1 251830Z 10017KT 29/20 A299 RMK A01 T02940198  RH  056%=      5-min Rain = 0
KCO1 251831Z 10018KT 29/20 A299 RMK A01 T02940197  RH  056%=      5-min Rain = 0
KCO1 251832Z 10018KT 29/20 A299 RMK A01 T02920197  RH  056%=      5-min Rain = 0
KCO1 251833Z 11014KT 29/20 A299 RMK A01 T02910197  RH  057%=      5-min Rain = 0
KCO1 251834Z 11016KT 29/20 A299 RMK A01 T02910198  RH  057%=      5-min Rain = 0
KCO1 251835Z 10016KT 29/20 A299 RMK A01 T02910197  RH  057%=      5-min Rain = 0
KCO1 251836Z 11017KT 29/20 A299 RMK A01 T02900197  RH  057%=      5-min Rain = 0
KCO1 251837Z 11016KT 29/20 A299 RMK A01 T02900197  RH  057%=      5-min Rain = 0
KCO1 251838Z 11012KT 29/20 A299 RMK A01 T02890198  RH  058%=      5-min Rain = 0
KCO1 251839Z 10015KT 29/20 A299 RMK A01 T02890198  RH  058%=      5-min Rain = 0
KCO1 251840Z 10012KT 29/20 A299 RMK A01 T02890198  RH  058%=      5-min Rain = 0
KCO1 251841Z 10010KT 29/20 A299 RMK A01 T02890198  RH  058%=      5-min Rain = 0
KCO1 251842Z 11011KT 29/20 A299 RMK A01 T02880198  RH  058%=      5-min Rain = 0
KCO1 251843Z 10013G18KT 29/20 A2989 RMK A01 T02880199  RH  058%=      5-min Rain = 0
KCO1 251844Z 11015KT 29/20 A299 RMK A01 T02880198  RH  058%=      5-min Rain = 0
KCO1 251845Z 11016KT 29/20 A2989 RMK A01 T02880198  RH  058%=      5-min Rain = 0
KCO1 251846Z 11014KT 29/20 A2989 RMK A01 T02870199  RH  059%=      5-min Rain = 0
KCO1 251847Z 11015KT 29/20 A2989 RMK A01 T02860199  RH  059%=      5-min Rain = 0
KCO1 251848Z 11016KT 29/20 A2989 RMK A01 T02850200  RH  060%=      5-min Rain = 0
KCO1 251849Z 10016KT 28/20 A2989 RMK A01 T02840202  RH  061%=      5-min Rain = 0
KCO1 251850Z 10014KT 28/20 A2989 RMK A01 T02820202  RH  062%=      5-min Rain = 0
KCO1 251851Z 10010KT 28/20 A2989 RMK A01 T02810204  RH  063%=      5-min Rain = 0
KCO1 251852Z 10013KT 28/21 A2989 RMK A01 T02790206  RH  065%=      5-min Rain = 0
KCO1 251853Z 10016KT 28/21 A2989 RMK A01 T02780208  RH  066%=      5-min Rain = 0
KCO1 251854Z 11016G21KT 28/21 A2989 RMK A01 T02750209  RH  067%=      5-min Rain = 0
KCO1 251855Z 10012KT 27/21 A2989 RMK A01 T02720212  RH  070%=      5-min Rain = 0
KCO1 251856Z 10012KT 27/21 A299 RMK A01 T02690213  RH  071%=      5-min Rain = 0
KCO1 251857Z 10014KT 27/21 A299 RMK A01 T02670212  RH  072%=      5-min Rain = 0
KCO1 251858Z 10011KT 27/21 A299 RMK A01 T02650212  RH  072%=      5-min Rain = 0
KCO1 251859Z 10012KT 26/21 A299 RMK A01 T02640213  RH  073%=      5-min Rain = 0
KCO1 251900Z 11010KT 26/21 A299 RMK A01 T02630212  RH  074%=      5-min Rain = 0
KCO1 251901Z 10008KT 26/22 A299 RMK A01 T02630215  RH  075%=      5-min Rain = 0.01
KCO1 251902Z 10007KT 26/22 A299 RMK A01 T02620216  RH  076%=      5-min Rain = 0
KCO1 251903Z 10009KT 26/22 A299 RMK A01 T02610217  RH  077%=      5-min Rain = 0
KCO1 251904Z 10008KT 26/22 A299 RMK A01 T02600217  RH  077%=      5-min Rain = 0
KCO1 251905Z 09009KT 26/22 A299 RMK A01 T02600219  RH  078%=      5-min Rain = 0
KCO1 251906Z 10011KT 26/22 A299 RMK A01 T02590217  RH  078%=      5-min Rain = 0.01
KCO1 251907Z 09012KT 26/22 A299 RMK A01 T02590216  RH  077%=      5-min Rain = 0
KCO1 251908Z 08014KT 26/22 A299 RMK A01 T02590216  RH  077%=      5-min Rain = 0
KCO1 251909Z 08015KT 26/22 A299 RMK A01 T02590216  RH  077%=      5-min Rain = 0
KCO1 251910Z 09014KT 26/22 A2989 RMK A01 T02580217  RH  078%=      5-min Rain = 0
KCO1 251911Z 09013KT 26/22 A299 RMK A01 T02570216  RH  078%=      5-min Rain = 0
KCO1 251912Z 10010KT 26/22 A299 RMK A01 T02560217  RH  079%=      5-min Rain = 0
KCO1 251913Z 11009KT 26/22 A299 RMK A01 T02560217  RH  079%=      5-min Rain = 0
KCO1 251914Z 11008KT 26/22 A2991 RMK A01 T02550217  RH  079%=      5-min Rain = 0
KCO1 251915Z 12009KT 26/22 A2991 RMK A01 T02550218  RH  080%=      5-min Rain = 0
KCO1 251916Z 13008KT 25/22 A2991 RMK A01 T02540217  RH  080%=      5-min Rain = 0
KCO1 251917Z 13008KT 25/22 A2991 RMK A01 T02540218  RH  080%=      5-min Rain = 0
KCO1 251918Z 12008KT 25/22 A2991 RMK A01 T02540219  RH  081%=      5-min Rain = 0
KCO1 251919Z 12008KT 25/22 A2991 RMK A01 T02540220  RH  081%=      5-min Rain = 0
KCO1 251920Z 11009KT 25/22 A299 RMK A01 T02540222  RH  082%=      5-min Rain = 0
KCO1 251921Z 12011KT 25/22 A2991 RMK A01 T02540222  RH  083%=      5-min Rain = 0
KCO1 251922Z 14010KT 25/22 A2991 RMK A01 T02530222  RH  083%=      5-min Rain = 0
KCO1 251923Z 14011KT 25/22 A2991 RMK A01 T02530222  RH  083%=      5-min Rain = 0
KCO1 251924Z 16012G17KT 25/22 A2992 RMK A01 T02530223  RH  083%=      5-min Rain = 0
KCO1 251925Z 16018KT 25/22 A2991 RMK A01 T02520217  RH  081%=      5-min Rain = 0
KCO1 251926Z 17015G20KT 24/20 A2991 RMK A01 T02440201  RH  077%=      5-min Rain = 0
KCO1 251927Z 16012KT 24/20 A2991 RMK A01 T02390197  RH  077%=      5-min Rain = 0
KCO1 251928Z 16010KT 24/20 A2991 RMK A01 T02380196  RH  077%=      5-min Rain = 0
KCO1 251929Z 15008KT 24/19 A299 RMK A01 T02370191  RH  075%=      5-min Rain = 0
KCO1 251930Z 12009KT 24/19 A299 RMK A01 T02370188  RH  074%=      5-min Rain = 0
KCO1 251931Z 11013KT 24/18 A2989 RMK A01 T02380178  RH  069%=      5-min Rain = 0
KCO1 251932Z 11013KT 24/16 A2989 RMK A01 T02380164  RH  063%=      5-min Rain = 0
KCO1 251933Z 11013KT 24/16 A2989 RMK A01 T02390164  RH  063%=      5-min Rain = 0
KCO1 251934Z 10012KT 24/16 A2989 RMK A01 T02380164  RH  063%=      5-min Rain = 0
KCO1 251935Z 11014KT 24/16 A2988 RMK A01 T02370159  RH  061%=      5-min Rain = 0
KCO1 251936Z 12012KT 24/15 A2988 RMK A01 T02370150  RH  058%=      5-min Rain = 0
KCO1 251937Z 10008KT 24/15 A2988 RMK A01 T02370152  RH  059%=      5-min Rain = 0
KCO1 251938Z 10007KT 24/16 A2987 RMK A01 T02360155  RH  060%=      5-min Rain = 0
KCO1 251939Z 09009KT 24/16 A2988 RMK A01 T02360161  RH  063%=      5-min Rain = 0
KCO1 251940Z 10014G20KT 24/16 A2988 RMK A01 T02360158  RH  062%=      5-min Rain = 0
KCO1 251941Z 11020KT 24/17 A2988 RMK A01 T02360167  RH  065%=      5-min Rain = 0
KCO1 251942Z 12019KT 23/18 A2989 RMK A01 T02340175  RH  069%=      5-min Rain = 0
KCO1 251943Z 11019KT 23/18 A2989 RMK A01 T02290179  RH  073%=      5-min Rain = 0
KCO1 251944Z 10015G22KT 23/18 A2988 RMK A01 T02260183  RH  077%=      5-min Rain = 0
KCO1 251945Z 11020KT 22/18 A2988 RMK A01 T02240182  RH  077%=      5-min Rain = 0
KCO1 251946Z 11019KT 22/18 A2988 RMK A01 T02240182  RH  077%=      5-min Rain = 0
KCO1 251947Z 11018KT 23/18 A2988 RMK A01 T02250184  RH  078%=      5-min Rain = 0
KCO1 251948Z 12013KT 22/18 A2989 RMK A01 T02240183  RH  077%=      5-min Rain = 0
KCO1 251949Z 12013G18KT 23/19 A2989 RMK A01 T02250185  RH  078%=      5-min Rain = 0
KCO1 251950Z 11015G21KT 23/19 A2989 RMK A01 T02270188  RH  079%=      5-min Rain = 0
KCO1 251951Z 11018KT 23/18 A2989 RMK A01 T02260182  RH  076%=      5-min Rain = 0
KCO1 251952Z 11013G18KT 22/18 A2989 RMK A01 T02210179  RH  077%=      5-min Rain = 0
KCO1 251953Z 11015KT 22/18 A2989 RMK A01 T02190181  RH  079%=      5-min Rain = 0
KCO1 251954Z 10018KT 22/18 A2989 RMK A01 T02190181  RH  079%=      5-min Rain = 0
KCO1 251955Z 10016KT 22/18 A2989 RMK A01 T02190181  RH  079%=      5-min Rain = 0
KCO1 251956Z 10016G21KT 22/18 A2989 RMK A01 T02200183  RH  079%=      5-min Rain = 0
KCO1 251957Z 09019KT 22/18 A2989 RMK A01 T02200183  RH  079%=      5-min Rain = 0
KCO1 251958Z 09017G22KT 22/18 A299 RMK A01 T02210182  RH  078%=      5-min Rain = 0
KCO1 251959Z 09017KT 22/18 A2989 RMK A01 T02230183  RH  078%=      5-min Rain = 0
KCO1 252000Z 09018G23KT 23/19 A299 RMK A01 T02250185  RH  078%=      5-min Rain = 0
KCO1 252001Z 09017KT 23/19 A299 RMK A01 T02280185  RH  077%=      5-min Rain = 0
KCO1 252002Z 09017KT 23/19 A299 RMK A01 T02300186  RH  076%=      5-min Rain = 0
KCO1 252003Z 09020G26KT 23/19 A299 RMK A01 T02310186  RH  076%=      5-min Rain = 0
KCO1 252004Z 09018G23KT 23/18 A299 RMK A01 T02300184  RH  075%=      5-min Rain = 0
KCO1 252005Z 08014KT 23/18 A2989 RMK A01 T02290184  RH  075%=      5-min Rain = 0
KCO1 252006Z 08015KT 23/18 A2989 RMK A01 T02300182  RH  074%=      5-min Rain = 0
KCO1 252007Z 08017KT 23/18 A2989 RMK A01 T02300180  RH  073%=      5-min Rain = 0
KCO1 252008Z 08015KT 23/18 A2989 RMK A01 T02310179  RH  072%=      5-min Rain = 0
KCO1 252009Z 08016KT 23/18 A2989 RMK A01 T02300178  RH  072%=      5-min Rain = 0
KCO1 252010Z 07017KT 23/18 A2989 RMK A01 T02300177  RH  072%=      5-min Rain = 0
KCO1 252011Z 08017KT 23/18 A2989 RMK A01 T02320175  RH  070%=      5-min Rain = 0
KCO1 252012Z 07013G18KT 23/18 A2988 RMK A01 T02340176  RH  070%=      5-min Rain = 0
KCO1 252013Z 07014KT 24/18 A2988 RMK A01 T02380181  RH  070%=      5-min Rain = 0
KCO1 252014Z 07015KT 24/18 A2988 RMK A01 T02400181  RH  069%=      5-min Rain = 0
KCO1 252015Z 07016KT 24/18 A2988 RMK A01 T02410180  RH  069%=      5-min Rain = 0
KCO1 252016Z 07015KT 24/18 A2988 RMK A01 T02410182  RH  069%=      5-min Rain = 0
KCO1 252017Z 07016KT 24/18 A2988 RMK A01 T02420183  RH  069%=      5-min Rain = 0
KCO1 252018Z 07015KT 24/19 A2988 RMK A01 T02420185  RH  070%=      5-min Rain = 0
KCO1 252019Z 07015KT 24/19 A2988 RMK A01 T02430187  RH  071%=      5-min Rain = 0
KCO1 252020Z 07015KT 25/19 A2988 RMK A01 T02450186  RH  070%=      5-min Rain = 0
KCO1 252021Z 06011KT 25/19 A2988 RMK A01 T02450188  RH  071%=      5-min Rain = 0
KCO1 252022Z 07015KT 25/19 A2988 RMK A01 T02480192  RH  071%=      5-min Rain = 0
KCO1 252023Z 07012KT 25/19 A2987 RMK A01 T02510188  RH  068%=      5-min Rain = 0
KCO1 252024Z 07015KT 25/19 A2988 RMK A01 T02520190  RH  068%=      5-min Rain = 0
KCO1 252025Z 07015KT 25/18 A2988 RMK A01 T02510184  RH  066%=      5-min Rain = 0
KCO1 252026Z 07014KT 25/18 A2988 RMK A01 T02500184  RH  067%=      5-min Rain = 0
KCO1 252027Z 07014KT 25/18 A2988 RMK A01 T02500183  RH  066%=      5-min Rain = 0
KCO1 252028Z 07014KT 25/18 A2988 RMK A01 T02500182  RH  066%=      5-min Rain = 0
KCO1 252029Z 07011KT 25/19 A2987 RMK A01 T02510185  RH  067%=      5-min Rain = 0
KCO1 252030Z 06014KT 26/19 A2987 RMK A01 T02550186  RH  066%=      5-min Rain = 0
KCO1 252031Z 06015KT 26/19 A2987 RMK A01 T02550186  RH  066%=      5-min Rain = 0
KCO1 252032Z 06015KT 26/19 A2987 RMK A01 T02550188  RH  067%=      5-min Rain = 0
KCO1 252033Z 05016KT 25/19 A2987 RMK A01 T02540191  RH  068%=      5-min Rain = 0
KCO1 252034Z 06015KT 25/19 A2987 RMK A01 T02540190  RH  068%=      5-min Rain = 0
KCO1 252035Z 06014KT 26/19 A2986 RMK A01 T02550191  RH  068%=      5-min Rain = 0
KCO1 252036Z 06012KT 26/19 A2986 RMK A01 T02560193  RH  068%=      5-min Rain = 0
KCO1 252037Z 06011G16KT 26/20 A2986 RMK A01 T02600196  RH  068%=      5-min Rain = 0
KCO1 252038Z 06013KT 26/19 A2986 RMK A01 T02620192  RH  066%=      5-min Rain = 0
KCO1 252039Z 08012KT 26/19 A2987 RMK A01 T02610194  RH  066%=      5-min Rain = 0
KCO1 252040Z 08012KT 26/19 A2987 RMK A01 T02610191  RH  065%=      5-min Rain = 0
KCO1 252041Z 07011KT 26/19 A2987 RMK A01 T02610194  RH  066%=      5-min Rain = 0
KCO1 252042Z 08013KT 26/19 A2987 RMK A01 T02640192  RH  065%=      5-min Rain = 0
KCO1 252043Z 08013KT 26/19 A2987 RMK A01 T02640189  RH  064%=      5-min Rain = 0
KCO1 252044Z 09013KT 26/19 A2987 RMK A01 T02640194  RH  065%=      5-min Rain = 0
KCO1 252045Z 08016KT 27/19 A2987 RMK A01 T02650191  RH  064%=      5-min Rain = 0
KCO1 252046Z 08015KT 27/19 A2987 RMK A01 T02650190  RH  063%=      5-min Rain = 0
KCO1 252047Z 07017G22KT 27/19 A2988 RMK A01 T02670192  RH  063%=      5-min Rain = 0
KCO1 252048Z 06018G23KT 27/19 A2988 RMK A01 T02660187  RH  062%=      5-min Rain = 0
KCO1 252049Z 08017G22KT 26/18 A2988 RMK A01 T02630183  RH  062%=      5-min Rain = 0
KCO1 252050Z 08017KT 26/18 A2988 RMK A01 T02580180  RH  062%=      5-min Rain = 0
KCO1 252051Z 08017KT 25/18 A2988 RMK A01 T02540178  RH  063%=      5-min Rain = 0
KCO1 252052Z 07018KT 25/18 A2988 RMK A01 T02530176  RH  062%=      5-min Rain = 0
KCO1 252053Z 07016G21KT 25/17 A2987 RMK A01 T02510174  RH  062%=      5-min Rain = 0
KCO1 252054Z 06015KT 25/17 A2987 RMK A01 T02490174  RH  063%=      5-min Rain = 0
KCO1 252055Z 06015KT 25/17 A2987 RMK A01 T02500174  RH  063%=      5-min Rain = 0
KCO1 252056Z 07017KT 25/17 A2987 RMK A01 T02510172  RH  062%=      5-min Rain = 0
KCO1 252057Z 07015KT 25/17 A2987 RMK A01 T02500173  RH  062%=      5-min Rain = 0
KCO1 252058Z 07011KT 25/18 A2987 RMK A01 T02510176  RH  063%=      5-min Rain = 0
KCO1 252059Z 06013KT 25/18 A2987 RMK A01 T02540177  RH  062%=      5-min Rain = 0
KCO1 252100Z 07014KT 26/18 A2987 RMK A01 T02560178  RH  062%=      5-min Rain = 0
KCO1 252101Z 07016KT 26/18 A2987 RMK A01 T02560175  RH  061%=      5-min Rain = 0
KCO1 252102Z 07016KT 26/18 A2987 RMK A01 T02560177  RH  061%=      5-min Rain = 0
KCO1 252103Z 06013G18KT 26/18 A2987 RMK A01 T02570178  RH  062%=      5-min Rain = 0
KCO1 252104Z 06016KT 26/18 A2987 RMK A01 T02600180  RH  061%=      5-min Rain = 0
KCO1 252105Z 06013KT 26/18 A2987 RMK A01 T02600181  RH  062%=      5-min Rain = 0
KCO1 252106Z 06015KT 26/18 A2987 RMK A01 T02590181  RH  062%=      5-min Rain = 0
KCO1 252107Z 06012KT 26/18 A2987 RMK A01 T02580180  RH  062%=      5-min Rain = 0
KCO1 252108Z 07011KT 26/18 A2987 RMK A01 T02590182  RH  062%=      5-min Rain = 0
KCO1 252109Z 08012KT 26/18 A2986 RMK A01 T02600182  RH  062%=      5-min Rain = 0
KCO1 252110Z 07011G17KT 26/19 A2986 RMK A01 T02620185  RH  063%=      5-min Rain = 0
KCO1 252111Z 07015KT 26/18 A2986 RMK A01 T02640183  RH  061%=      5-min Rain = 0
KCO1 252112Z 07013KT 27/19 A2986 RMK A01 T02650185  RH  062%=      5-min Rain = 0
KCO1 252113Z 07015KT 27/19 A2986 RMK A01 T02650185  RH  061%=      5-min Rain = 0
KCO1 252114Z 07013KT 26/18 A2986 RMK A01 T02620184  RH  062%=      5-min Rain = 0
KCO1 252115Z 07012KT 26/18 A2986 RMK A01 T02580183  RH  063%=      5-min Rain = 0
KCO1 252116Z 07011KT 26/19 A2986 RMK A01 T02570185  RH  064%=      5-min Rain = 0
KCO1 252117Z 06012KT 26/19 A2985 RMK A01 T02580186  RH  064%=      5-min Rain = 0
KCO1 252118Z 07010KT 26/19 A2985 RMK A01 T02580188  RH  065%=      5-min Rain = 0
KCO1 252119Z 08012KT 26/19 A2985 RMK A01 T02580190  RH  066%=      5-min Rain = 0
KCO1 252120Z 07009KT 26/19 A2985 RMK A01 T02590191  RH  066%=      5-min Rain = 0
KCO1 252121Z 07009KT 26/20 A2985 RMK A01 T02600195  RH  067%=      5-min Rain = 0
KCO1 252122Z 07010KT 27/20 A2984 RMK A01 T02650198  RH  067%=      5-min Rain = 0
KCO1 252123Z 08012KT 27/20 A2985 RMK A01 T02680200  RH  066%=      5-min Rain = 0
KCO1 252124Z 08013KT 27/20 A2985 RMK A01 T02690201  RH  066%=      5-min Rain = 0
KCO1 252125Z 07014KT 27/20 A2985 RMK A01 T02690202  RH  067%=      5-min Rain = 0
KCO1 252126Z 08017KT 27/20 A2985 RMK A01 T02680198  RH  066%=      5-min Rain = 0
KCO1 252127Z 06017KT 26/19 A2985 RMK A01 T02640194  RH  066%=      5-min Rain = 0
KCO1 252128Z 07015KT 26/19 A2985 RMK A01 T02610192  RH  066%=      5-min Rain = 0
KCO1 252129Z 07019KT 26/19 A2985 RMK A01 T02620188  RH  064%=      5-min Rain = 0
KCO1 252130Z 07016KT 26/18 A2985 RMK A01 T02610183  RH  062%=      5-min Rain = 0
KCO1 252131Z 07015KT 26/18 A2985 RMK A01 T02590183  RH  063%=      5-min Rain = 0
KCO1 252132Z 07015KT 26/18 A2986 RMK A01 T02580183  RH  063%=      5-min Rain = 0
KCO1 252133Z 06015G20KT 26/19 A2986 RMK A01 T02580185  RH  064%=      5-min Rain = 0
KCO1 252134Z 07017KT 26/19 A2986 RMK A01 T02600185  RH  063%=      5-min Rain = 0
KCO1 252135Z 07016KT 26/18 A2986 RMK A01 T02600184  RH  063%=      5-min Rain = 0
KCO1 252136Z 07016KT 26/18 A2986 RMK A01 T02600184  RH  063%=      5-min Rain = 0
KCO1 252137Z 07017KT 26/18 A2986 RMK A01 T02600181  RH  062%=      5-min Rain = 0
KCO1 252138Z 07017G22KT 26/18 A2986 RMK A01 T02610180  RH  061%=      5-min Rain = 0
KCO1 252139Z 07017KT 26/18 A2986 RMK A01 T02610181  RH  061%=      5-min Rain = 0
KCO1 252140Z 07015KT 26/18 A2986 RMK A01 T02630183  RH  061%=      5-min Rain = 0
KCO1 252141Z 09015G20KT 27/18 A2986 RMK A01 T02660184  RH  061%=      5-min Rain = 0
KCO1 252142Z 09018KT 27/18 A2986 RMK A01 T02680183  RH  060%=      5-min Rain = 0
KCO1 252143Z 09020KT 27/18 A2986 RMK A01 T02670183  RH  060%=      5-min Rain = 0
KCO1 252144Z 09021KT 26/18 A2986 RMK A01 T02640183  RH  061%=      5-min Rain = 0
KCO1 252145Z 09019KT 26/18 A2986 RMK A01 T02600183  RH  063%=      5-min Rain = 0
KCO1 252146Z 08019KT 26/19 A2986 RMK A01 T02600187  RH  064%=      5-min Rain = 0
KCO1 252147Z 09023KT 26/19 A2987 RMK A01 T02600188  RH  064%=      5-min Rain = 0
KCO1 252148Z 09022G29KT 26/19 A2987 RMK A01 T02600189  RH  065%=      5-min Rain = 0
KCO1 252149Z 09023KT 26/19 A2987 RMK A01 T02590189  RH  066%=      5-min Rain = 0
KCO1 252150Z 09022KT 26/19 A2987 RMK A01 T02570189  RH  066%=      5-min Rain = 0
KCO1 252151Z 09019G24KT 26/19 A2987 RMK A01 T02560188  RH  066%=      5-min Rain = 0
KCO1 252152Z 08018G23KT 26/19 A2986 RMK A01 T02570188  RH  066%=      5-min Rain = 0
KCO1 252153Z 09024G29KT 26/19 A2986 RMK A01 T02580186  RH  064%=      5-min Rain = 0
KCO1 252154Z 09024G30KT 26/19 A2986 RMK A01 T02590186  RH  064%=      5-min Rain = 0
KCO1 252155Z 09015G23KT 26/18 A2986 RMK A01 T02580183  RH  063%=      5-min Rain = 0
KCO1 252156Z 10015G22KT 26/18 A2986 RMK A01 T02560182  RH  064%=      5-min Rain = 0
KCO1 252157Z 10021G28KT 26/18 A2986 RMK A01 T02560182  RH  064%=      5-min Rain = 0
KCO1 252158Z 09021G26KT 26/18 A2986 RMK A01 T02550183  RH  064%=      5-min Rain = 0
KCO1 252159Z 09021KT 25/18 A2986 RMK A01 T02530184  RH  065%=      5-min Rain = 0
KCO1 252200Z 08021KT 25/19 A2986 RMK A01 T02520185  RH  066%=      5-min Rain = 0
KCO1 252201Z 08019KT 25/18 A2986 RMK A01 T02490184  RH  067%=      5-min Rain = 0
KCO1 252202Z 08019KT 24/18 A2986 RMK A01 T02440183  RH  068%=      5-min Rain = 0
KCO1 252203Z 09013KT 24/19 A2986 RMK A01 T02430185  RH  070%=      5-min Rain = 0
KCO1 252204Z 08020G25KT 25/18 A2986 RMK A01 T02450184  RH  069%=      5-min Rain = 0
KCO1 252205Z 08020KT 25/18 A2986 RMK A01 T02470182  RH  067%=      5-min Rain = 0
KCO1 252206Z 09018G23KT 25/18 A2986 RMK A01 T02470182  RH  067%=      5-min Rain = 0
KCO1 252207Z 08016G23KT 25/18 A2986 RMK A01 T02470184  RH  068%=      5-min Rain = 0
KCO1 252208Z 08020KT 25/18 A2986 RMK A01 T02470182  RH  067%=      5-min Rain = 0
KCO1 252209Z 08018KT 25/18 A2985 RMK A01 T02470183  RH  067%=      5-min Rain = 0
KCO1 252210Z 08019G26KT 25/18 A2986 RMK A01 T02470183  RH  067%=      5-min Rain = 0
KCO1 252211Z 09022G27KT 25/18 A2986 RMK A01 T02480181  RH  066%=      5-min Rain = 0
KCO1 252212Z 08018G24KT 25/18 A2986 RMK A01 T02470180  RH  067%=      5-min Rain = 0
KCO1 252213Z 09020KT 25/18 A2985 RMK A01 T02470180  RH  066%=      5-min Rain = 0
KCO1 252214Z 09017KT 25/18 A2985 RMK A01 T02480179  RH  066%=      5-min Rain = 0
KCO1 252215Z 09017KT 25/18 A2985 RMK A01 T02500179  RH  065%=      5-min Rain = 0
KCO1 252216Z 08018KT 25/18 A2985 RMK A01 T02520179  RH  064%=      5-min Rain = 0
KCO1 252217Z 08018KT 25/18 A2985 RMK A01 T02530177  RH  063%=      5-min Rain = 0
KCO1 252218Z 08019KT 25/18 A2986 RMK A01 T02530176  RH  062%=      5-min Rain = 0
KCO1 252219Z 08020KT 25/17 A2986 RMK A01 T02520174  RH  062%=      5-min Rain = 0
KCO1 252220Z 08019KT 25/17 A2986 RMK A01 T02520174  RH  062%=      5-min Rain = 0
KCO1 252221Z 09014KT 25/18 A2985 RMK A01 T02530175  RH  062%=      5-min Rain = 0
KCO1 252222Z 09018KT 26/18 A2986 RMK A01 T02550175  RH  061%=      5-min Rain = 0
KCO1 252223Z 09018KT 26/17 A2986 RMK A01 T02570174  RH  060%=      5-min Rain = 0
KCO1 252224Z 09019G24KT 26/18 A2986 RMK A01 T02570175  RH  060%=      5-min Rain = 0
KCO1 252225Z 09021G26KT 26/18 A2986 RMK A01 T02570175  RH  060%=      5-min Rain = 0
KCO1 252226Z 08021KT 26/17 A2986 RMK A01 T02570170  RH  059%=      5-min Rain = 0
KCO1 252227Z 09017G24KT 26/17 A2987 RMK A01 T02570168  RH  058%=      5-min Rain = 0
KCO1 252228Z 09025G30KT 26/17 A2987 RMK A01 T02560167  RH  058%=      5-min Rain = 0
KCO1 252229Z 09024G29KT 26/16 A2986 RMK A01 T02550163  RH  057%=      5-min Rain = 0
KCO1 252230Z 09023KT 25/16 A2986 RMK A01 T02520161  RH  057%=      5-min Rain = 0
KCO1 252231Z 09021G28KT 25/16 A2986 RMK A01 T02510160  RH  057%=      5-min Rain = 0
KCO1 252232Z 09021G26KT 25/16 A2986 RMK A01 T02500160  RH  057%=      5-min Rain = 0
KCO1 252233Z 09020KT 25/16 A2986 RMK A01 T02490161  RH  058%=      5-min Rain = 0
KCO1 252234Z 08019KT 25/16 A2986 RMK A01 T02480162  RH  059%=      5-min Rain = 0
KCO1 252235Z 08017KT 25/16 A2986 RMK A01 T02480162  RH  059%=      5-min Rain = 0
KCO1 252236Z 08016KT 25/16 A2986 RMK A01 T02480162  RH  059%=      5-min Rain = 0
KCO1 252237Z 08017KT 25/16 A2986 RMK A01 T02510164  RH  058%=      5-min Rain = 0
KCO1 252238Z 08015KT 25/16 A2986 RMK A01 T02530163  RH  057%=      5-min Rain = 0
KCO1 252239Z 08018G23KT 26/16 A2986 RMK A01 T02560164  RH  057%=      5-min Rain = 0
KCO1 252240Z 07020KT 26/16 A2986 RMK A01 T02580163  RH  056%=      5-min Rain = 0
KCO1 252241Z 08021G27KT 26/16 A2986 RMK A01 T02600164  RH  055%=      5-min Rain = 0
KCO1 252242Z 08021KT 26/17 A2985 RMK A01 T02610166  RH  056%=      5-min Rain = 0
KCO1 252243Z 08023KT 26/17 A2985 RMK A01 T02590168  RH  057%=      5-min Rain = 0
KCO1 252244Z 09025KT 26/17 A2985 RMK A01 T02570169  RH  058%=      5-min Rain = 0
KCO1 252245Z 09020G25KT 26/17 A2985 RMK A01 T02560170  RH  059%=      5-min Rain = 0
KCO1 252246Z 10021G28KT 25/17 A2985 RMK A01 T02540167  RH  059%=      5-min Rain = 0
KCO1 252247Z 09020G25KT 25/17 A2985 RMK A01 T02520165  RH  058%=      5-min Rain = 0
KCO1 252248Z 09016KT 25/17 A2985 RMK A01 T02520165  RH  059%=      5-min Rain = 0
KCO1 252249Z 09020G25KT 25/17 A2985 RMK A01 T02520166  RH  059%=      5-min Rain = 0
KCO1 252250Z 09020KT 25/16 A2986 RMK A01 T02520164  RH  058%=      5-min Rain = 0
KCO1 252251Z 10019KT 25/16 A2986 RMK A01 T02520164  RH  058%=      5-min Rain = 0
KCO1 252252Z 10021KT 25/16 A2986 RMK A01 T02530164  RH  058%=      5-min Rain = 0
KCO1 252253Z 11020KT 26/17 A2986 RMK A01 T02550165  RH  057%=      5-min Rain = 0
KCO1 252254Z 11023G29KT 26/17 A2986 RMK A01 T02550167  RH  058%=      5-min Rain = 0
KCO1 252255Z 12019KT 25/17 A2986 RMK A01 T02520168  RH  060%=      5-min Rain = 0
KCO1 252256Z 11021KT 25/17 A2986 RMK A01 T02490170  RH  061%=      5-min Rain = 0
KCO1 252257Z 11016G24KT 25/17 A2986 RMK A01 T02470170  RH  062%=      5-min Rain = 0
KCO1 252258Z 11018KT 25/17 A2986 RMK A01 T02460169  RH  062%=      5-min Rain = 0
KCO1 252259Z 11018G24KT 25/17 A2986 RMK A01 T02460170  RH  062%=      5-min Rain = 0
KCO1 252300Z 11017G24KT 25/17 A2986 RMK A01 T02470170  RH  062%=      5-min Rain = 0
KCO1 252301Z 11018G23KT 25/17 A2986 RMK A01 T02480172  RH  063%=      5-min Rain = 0
KCO1 252302Z 11018G24KT 25/17 A2986 RMK A01 T02500174  RH  062%=      5-min Rain = 0
KCO1 252303Z 10022G27KT 25/17 A2986 RMK A01 T02500173  RH  062%=      5-min Rain = 0
KCO1 252304Z 10021G26KT 25/18 A2986 RMK A01 T02480175  RH  064%=      5-min Rain = 0
KCO1 252305Z 10018G23KT 25/17 A2986 RMK A01 T02460173  RH  064%=      5-min Rain = 0
KCO1 252306Z 09017G25KT 25/17 A2986 RMK A01 T02450172  RH  064%=      5-min Rain = 0
KCO1 252307Z 09015G20KT 25/17 A2985 RMK A01 T02450169  RH  062%=      5-min Rain = 0
KCO1 252308Z 09016KT 25/17 A2985 RMK A01 T02470169  RH  062%=      5-min Rain = 0
KCO1 252309Z 10018KT 25/17 A2986 RMK A01 T02480169  RH  061%=      5-min Rain = 0
KCO1 252310Z 10022G28KT 25/17 A2986 RMK A01 T02490167  RH  060%=      5-min Rain = 0
KCO1 252311Z 10019KT 25/17 A2986 RMK A01 T02480165  RH  060%=      5-min Rain = 0
KCO1 252312Z 10019KT 25/17 A2986 RMK A01 T02450166  RH  061%=      5-min Rain = 0
KCO1 252313Z 11019G24KT 24/17 A2985 RMK A01 T02440168  RH  063%=      5-min Rain = 0
KCO1 252314Z 10018G25KT 24/17 A2986 RMK A01 T02430168  RH  063%=      5-min Rain = 0
KCO1 252315Z 10022KT 24/17 A2986 RMK A01 T02400166  RH  063%=      5-min Rain = 0
KCO1 252316Z 10021KT 24/17 A2986 RMK A01 T02370165  RH  064%=      5-min Rain = 0
KCO1 252317Z 10017G22KT 24/17 A2985 RMK A01 T02360166  RH  065%=      5-min Rain = 0
KCO1 252318Z 10014KT 24/17 A2985 RMK A01 T02370167  RH  065%=      5-min Rain = 0
KCO1 252319Z 09016G22KT 24/17 A2985 RMK A01 T02390167  RH  064%=      5-min Rain = 0
KCO1 252320Z 09018KT 24/17 A2985 RMK A01 T02410165  RH  063%=      5-min Rain = 0
KCO1 252321Z 09014G19KT 24/16 A2985 RMK A01 T02410164  RH  062%=      5-min Rain = 0
KCO1 252322Z 09015KT 24/17 A2985 RMK A01 T02410165  RH  062%=      5-min Rain = 0
KCO1 252323Z 10014G19KT 24/17 A2986 RMK A01 T02410166  RH  063%=      5-min Rain = 0
KCO1 252324Z 10012G17KT 24/17 A2986 RMK A01 T02420166  RH  063%=      5-min Rain = 0
KCO1 252325Z 12015G21KT 24/17 A2986 RMK A01 T02430168  RH  063%=      5-min Rain = 0
KCO1 252326Z 11017G22KT 25/17 A2986 RMK A01 T02450168  RH  062%=      5-min Rain = 0
KCO1 252327Z 11016KT 25/17 A2987 RMK A01 T02450165  RH  061%=      5-min Rain = 0
KCO1 252328Z 11017KT 24/17 A2987 RMK A01 T02440167  RH  062%=      5-min Rain = 0
KCO1 252329Z 11019KT 24/17 A2987 RMK A01 T02440167  RH  062%=      5-min Rain = 0
KCO1 252330Z 11016KT 24/17 A2987 RMK A01 T02440167  RH  062%=      5-min Rain = 0
KCO1 252331Z 10016KT 25/17 A2986 RMK A01 T02460168  RH  062%=      5-min Rain = 0
KCO1 252332Z 10020KT 25/17 A2986 RMK A01 T02480167  RH  061%=      5-min Rain = 0
KCO1 252333Z 10020KT 25/17 A2985 RMK A01 T02460167  RH  061%=      5-min Rain = 0
KCO1 252334Z 09016G22KT 25/17 A2985 RMK A01 T02450168  RH  062%=      5-min Rain = 0
KCO1 252335Z 09016G21KT 25/17 A2985 RMK A01 T02450169  RH  063%=      5-min Rain = 0
KCO1 252336Z 10017G22KT 25/17 A2985 RMK A01 T02450169  RH  062%=      5-min Rain = 0
KCO1 252337Z 10017KT 25/17 A2985 RMK A01 T02450169  RH  063%=      5-min Rain = 0
KCO1 252338Z 10015KT 24/17 A2985 RMK A01 T02440169  RH  063%=      5-min Rain = 0
KCO1 252339Z 11015KT 24/17 A2986 RMK A01 T02440171  RH  064%=      5-min Rain = 0
KCO1 252340Z 11017KT 25/17 A2986 RMK A01 T02450170  RH  063%=      5-min Rain = 0
KCO1 252341Z 10018KT 25/17 A2986 RMK A01 T02450171  RH  063%=      5-min Rain = 0
KCO1 252342Z 10016KT 24/17 A2986 RMK A01 T02430170  RH  064%=      5-min Rain = 0
KCO1 252343Z 10016KT 24/17 A2986 RMK A01 T02430170  RH  064%=      5-min Rain = 0
KCO1 252344Z 10017KT 24/17 A2986 RMK A01 T02430171  RH  064%=      5-min Rain = 0
KCO1 252345Z 10016KT 24/17 A2985 RMK A01 T02430170  RH  064%=      5-min Rain = 0
KCO1 252346Z 10016KT 24/17 A2985 RMK A01 T02440168  RH  062%=      5-min Rain = 0
KCO1 252347Z 11018KT 25/17 A2985 RMK A01 T02450166  RH  061%=      5-min Rain = 0
KCO1 252348Z 10015KT 25/16 A2986 RMK A01 T02450164  RH  061%=      5-min Rain = 0
KCO1 252349Z 11013G18KT 25/17 A2986 RMK A01 T02460166  RH  061%=      5-min Rain = 0
KCO1 252350Z 11018KT 25/16 A2986 RMK A01 T02470162  RH  059%=      5-min Rain = 0
KCO1 252351Z 11014KT 25/16 A2986 RMK A01 T02480161  RH  058%=      5-min Rain = 0
KCO1 252352Z 11015KT 25/16 A2986 RMK A01 T02470161  RH  059%=      5-min Rain = 0
KCO1 252353Z 11015KT 25/16 A2986 RMK A01 T02480162  RH  059%=      5-min Rain = 0
KCO1 252354Z 10016KT 25/16 A2987 RMK A01 T02480162  RH  059%=      5-min Rain = 0
KCO1 252355Z 10017KT 25/16 A2987 RMK A01 T02480164  RH  059%=      5-min Rain = 0
KCO1 252356Z 09016KT 25/17 A2987 RMK A01 T02480165  RH  060%=      5-min Rain = 0
KCO1 252357Z 09013G18KT 25/17 A2986 RMK A01 T02470165  RH  060%=      5-min Rain = 0
KCO1 252358Z 09017KT 25/17 A2986 RMK A01 T02470165  RH  060%=      5-min Rain = 0
KCO1 252359Z 10018KT 25/16 A2986 RMK A01 T02450164  RH  061%=      5-min Rain = 0
KCO1 260000Z 10015G20KT 24/16 A2986 RMK A01 T02410163  RH  061%=      5-min Rain = 0
KCO1 260001Z 09016KT 24/16 A2986 RMK A01 T02390164  RH  062%=      5-min Rain = 0
KCO1 260002Z 09017KT 24/16 A2986 RMK A01 T02380163  RH  063%=      5-min Rain = 0
KCO1 260003Z 10015G20KT 24/16 A2986 RMK A01 T02370163  RH  063%=      5-min Rain = 0
KCO1 260004Z 10011KT 24/16 A2986 RMK A01 T02370164  RH  064%=      5-min Rain = 0
KCO1 260005Z 10013KT 24/17 A2986 RMK A01 T02390165  RH  064%=      5-min Rain = 0
KCO1 260006Z 09014KT 24/17 A2986 RMK A01 T02390166  RH  064%=      5-min Rain = 0
KCO1 260007Z 10015KT 24/17 A2986 RMK A01 T02390166  RH  064%=      5-min Rain = 0
KCO1 260008Z 09011KT 24/17 A2986 RMK A01 T02380167  RH  064%=      5-min Rain = 0
KCO1 260009Z 10008KT 24/17 A2986 RMK A01 T02390168  RH  064%=      5-min Rain = 0
KCO1 260010Z 09012KT 24/17 A2986 RMK A01 T02410168  RH  063%=      5-min Rain = 0
KCO1 260011Z 09013KT 24/17 A2986 RMK A01 T02410166  RH  063%=      5-min Rain = 0
KCO1 260012Z 10013KT 24/17 A2986 RMK A01 T02410165  RH  063%=      5-min Rain = 0
KCO1 260013Z 10017KT 24/17 A2987 RMK A01 T02400165  RH  063%=      5-min Rain = 0
KCO1 260014Z 11018KT 24/17 A2987 RMK A01 T02390165  RH  063%=      5-min Rain = 0
KCO1 260015Z 10017G24KT 24/17 A2987 RMK A01 T02380166  RH  064%=      5-min Rain = 0
KCO1 260016Z 10015KT 24/17 A2987 RMK A01 T02380167  RH  064%=      5-min Rain = 0
KCO1 260017Z 09014G19KT 24/17 A2987 RMK A01 T02380167  RH  065%=      5-min Rain = 0
KCO1 260018Z 09018KT 24/17 A2987 RMK A01 T02360167  RH  065%=      5-min Rain = 0
KCO1 260019Z 10014KT 24/17 A2987 RMK A01 T02350168  RH  066%=      5-min Rain = 0
KCO1 260020Z 10019KT 24/17 A2987 RMK A01 T02350169  RH  066%=      5-min Rain = 0
KCO1 260021Z 10020KT 23/17 A2987 RMK A01 T02330167  RH  066%=      5-min Rain = 0
KCO1 260022Z 10021KT 23/17 A2987 RMK A01 T02310167  RH  067%=      5-min Rain = 0
KCO1 260023Z 11019G24KT 23/17 A2987 RMK A01 T02310168  RH  068%=      5-min Rain = 0
KCO1 260024Z 11022KT 23/17 A2987 RMK A01 T02310168  RH  068%=      5-min Rain = 0
KCO1 260025Z 11019KT 23/17 A2987 RMK A01 T02310168  RH  068%=      5-min Rain = 0
KCO1 260026Z 10017KT 23/17 A2987 RMK A01 T02310169  RH  068%=      5-min Rain = 0
KCO1 260027Z 11017KT 23/17 A2986 RMK A01 T02310168  RH  068%=      5-min Rain = 0
KCO1 260028Z 11017KT 23/17 A2986 RMK A01 T02310169  RH  068%=      5-min Rain = 0
KCO1 260029Z 11015G20KT 23/17 A2986 RMK A01 T02320169  RH  068%=      5-min Rain = 0
KCO1 260030Z 11019G24KT 23/17 A2987 RMK A01 T02320169  RH  068%=      5-min Rain = 0
KCO1 260031Z 11018KT 23/17 A2987 RMK A01 T02320170  RH  068%=      5-min Rain = 0
KCO1 260032Z 09021KT 23/17 A2987 RMK A01 T02330171  RH  068%=      5-min Rain = 0
KCO1 260033Z 10022KT 23/17 A2988 RMK A01 T02320171  RH  069%=      5-min Rain = 0
KCO1 260034Z 11021G28KT 23/17 A2988 RMK A01 T02290170  RH  069%=      5-min Rain = 0
KCO1 260035Z 11020G25KT 23/17 A2987 RMK A01 T02270171  RH  070%=      5-min Rain = 0
KCO1 260036Z 11019KT 23/17 A2987 RMK A01 T02260171  RH  071%=      5-min Rain = 0
KCO1 260037Z 11019KT 22/17 A2988 RMK A01 T02240172  RH  072%=      5-min Rain = 0
KCO1 260038Z 10018KT 22/17 A2987 RMK A01 T02240172  RH  073%=      5-min Rain = 0
KCO1 260039Z 11021KT 22/17 A2988 RMK A01 T02230172  RH  073%=      5-min Rain = 0
KCO1 260040Z 10020KT 22/17 A2988 RMK A01 T02220172  RH  073%=      5-min Rain = 0
KCO1 260041Z 11023KT 22/17 A2988 RMK A01 T02210172  RH  074%=      5-min Rain = 0
KCO1 260042Z 11021G26KT 22/17 A2988 RMK A01 T02200172  RH  074%=      5-min Rain = 0
KCO1 260043Z 12022KT 22/17 A2988 RMK A01 T02200172  RH  074%=      5-min Rain = 0
KCO1 260044Z 12019KT 22/17 A2988 RMK A01 T02190173  RH  075%=      5-min Rain = 0
KCO1 260045Z 11019KT 22/17 A2988 RMK A01 T02190173  RH  075%=      5-min Rain = 0
KCO1 260046Z 11016KT 22/17 A2988 RMK A01 T02180173  RH  075%=      5-min Rain = 0
KCO1 260047Z 11017G22KT 22/17 A2988 RMK A01 T02180173  RH  075%=      5-min Rain = 0
KCO1 260048Z 11014KT 22/17 A2988 RMK A01 T02180173  RH  075%=      5-min Rain = 0
KCO1 260049Z 11017KT 22/17 A2988 RMK A01 T02180173  RH  075%=      5-min Rain = 0
KCO1 260050Z 12013G19KT 22/17 A2988 RMK A01 T02180173  RH  075%=      5-min Rain = 0
KCO1 260051Z 11017KT 22/17 A2988 RMK A01 T02190173  RH  075%=      5-min Rain = 0
KCO1 260052Z 11017KT 22/17 A2988 RMK A01 T02190173  RH  075%=      5-min Rain = 0
KCO1 260053Z 11016KT 22/17 A2988 RMK A01 T02180173  RH  075%=      5-min Rain = 0
KCO1 260054Z 11017KT 22/17 A2988 RMK A01 T02180173  RH  076%=      5-min Rain = 0
KCO1 260055Z 11016KT 22/17 A2988 RMK A01 T02180173  RH  076%=      5-min Rain = 0
KCO1 260056Z 11014KT 22/17 A2988 RMK A01 T02180173  RH  076%=      5-min Rain = 0
KCO1 260057Z 12013KT 22/17 A2988 RMK A01 T02180174  RH  076%=      5-min Rain = 0
KCO1 260058Z 12014KT 22/17 A2988 RMK A01 T02180174  RH  076%=      5-min Rain = 0
KCO1 260059Z 11013KT 22/17 A2988 RMK A01 T02190174  RH  076%=      5-min Rain = 0
KCO1 260100Z 11015KT 22/17 A2988 RMK A01 T02190174  RH  076%=      5-min Rain = 0
KCO1 260101Z 11015KT 22/17 A2988 RMK A01 T02190174  RH  075%=      5-min Rain = 0
KCO1 260102Z 11016KT 22/17 A2988 RMK A01 T02190174  RH  076%=      5-min Rain = 0
KCO1 260103Z 11015KT 22/17 A2989 RMK A01 T02190174  RH  076%=      5-min Rain = 0
KCO1 260104Z 10014KT 22/18 A2989 RMK A01 T02180175  RH  076%=      5-min Rain = 0
KCO1 260105Z 10015KT 22/18 A2989 RMK A01 T02180175  RH  076%=      5-min Rain = 0
KCO1 260106Z 10016KT 22/18 A2989 RMK A01 T02180175  RH  076%=      5-min Rain = 0
KCO1 260107Z 10017KT 22/17 A2989 RMK A01 T02170174  RH  076%=      5-min Rain = 0
KCO1 260108Z 11017KT 22/17 A2988 RMK A01 T02170173  RH  076%=      5-min Rain = 0
KCO1 260109Z 11016G21KT 22/17 A2988 RMK A01 T02170172  RH  075%=      5-min Rain = 0
KCO1 260110Z 11016KT 22/17 A2989 RMK A01 T02180172  RH  075%=      5-min Rain = 0
KCO1 260111Z 11016KT 22/17 A2989 RMK A01 T02190171  RH  074%=      5-min Rain = 0
KCO1 260112Z 12016G21KT 22/17 A2989 RMK A01 T02190171  RH  074%=      5-min Rain = 0
KCO1 260113Z 12014KT 22/17 A2989 RMK A01 T02190172  RH  074%=      5-min Rain = 0
KCO1 260114Z 13012KT 22/17 A2989 RMK A01 T02200172  RH  074%=      5-min Rain = 0
KCO1 260115Z 13016KT 22/17 A2989 RMK A01 T02200173  RH  074%=      5-min Rain = 0
KCO1 260116Z 12013KT 22/17 A2989 RMK A01 T02200173  RH  074%=      5-min Rain = 0
KCO1 260117Z 13016KT 22/17 A2989 RMK A01 T02210173  RH  074%=      5-min Rain = 0
KCO1 260118Z 13016KT 22/17 A2989 RMK A01 T02220174  RH  074%=      5-min Rain = 0
KCO1 260119Z 13016KT 22/17 A2989 RMK A01 T02210174  RH  074%=      5-min Rain = 0
KCO1 260120Z 12015KT 22/17 A2989 RMK A01 T02220174  RH  074%=      5-min Rain = 0
KCO1 260121Z 13015KT 22/18 A2989 RMK A01 T02220175  RH  074%=      5-min Rain = 0
KCO1 260122Z 13018KT 22/18 A2989 RMK A01 T02220175  RH  075%=      5-min Rain = 0
KCO1 260123Z 13017KT 22/18 A2989 RMK A01 T02230176  RH  075%=      5-min Rain = 0
KCO1 260124Z 13015KT 22/18 A2989 RMK A01 T02230176  RH  075%=      5-min Rain = 0
KCO1 260125Z 12015KT 22/18 A2989 RMK A01 T02230177  RH  075%=      5-min Rain = 0
KCO1 260126Z 13015KT 22/18 A2989 RMK A01 T02230177  RH  075%=      5-min Rain = 0
KCO1 260127Z 13017KT 22/18 A2989 RMK A01 T02230178  RH  075%=      5-min Rain = 0
KCO1 260128Z 13014KT 22/18 A2989 RMK A01 T02230178  RH  075%=      5-min Rain = 0
KCO1 260129Z 12017G22KT 22/18 A2989 RMK A01 T02240178  RH  075%=      5-min Rain = 0
KCO1 260130Z 12015KT 22/18 A2989 RMK A01 T02240178  RH  075%=      5-min Rain = 0
KCO1 260131Z 12013KT 23/18 A2989 RMK A01 T02250179  RH  075%=      5-min Rain = 0
KCO1 260132Z 12016KT 23/18 A2989 RMK A01 T02250179  RH  075%=      5-min Rain = 0
KCO1 260133Z 12015KT 23/18 A2989 RMK A01 T02250179  RH  075%=      5-min Rain = 0
KCO1 260134Z 12017KT 23/18 A2989 RMK A01 T02260180  RH  075%=      5-min Rain = 0
KCO1 260135Z 12017KT 23/18 A2989 RMK A01 T02260179  RH  075%=      5-min Rain = 0
KCO1 260136Z 12015G20KT 23/18 A2989 RMK A01 T02260179  RH  075%=      5-min Rain = 0
KCO1 260137Z 12015KT 23/18 A2989 RMK A01 T02270180  RH  075%=      5-min Rain = 0
KCO1 260138Z 12013KT 23/18 A2989 RMK A01 T02270179  RH  075%=      5-min Rain = 0
KCO1 260139Z 12015KT 23/18 A2989 RMK A01 T02270180  RH  074%=      5-min Rain = 0
KCO1 260140Z 12013KT 23/18 A2989 RMK A01 T02270180  RH  074%=      5-min Rain = 0
KCO1 260141Z 11014KT 23/18 A2989 RMK A01 T02280180  RH  074%=      5-min Rain = 0
KCO1 260142Z 11013KT 23/18 A2989 RMK A01 T02280180  RH  075%=      5-min Rain = 0
KCO1 260143Z 11013KT 23/18 A2989 RMK A01 T02280180  RH  075%=      5-min Rain = 0
KCO1 260144Z 11013KT 23/18 A2989 RMK A01 T02280180  RH  075%=      5-min Rain = 0
KCO1 260145Z 11013KT 23/18 A2989 RMK A01 T02280181  RH  075%=      5-min Rain = 0
KCO1 260146Z 10013KT 23/18 A2989 RMK A01 T02280181  RH  075%=      5-min Rain = 0
KCO1 260147Z 10013KT 23/18 A2989 RMK A01 T02280181  RH  075%=      5-min Rain = 0
KCO1 260148Z 11015KT 23/18 A2989 RMK A01 T02280182  RH  075%=      5-min Rain = 0
KCO1 260149Z 11011KT 23/18 A2989 RMK A01 T02270182  RH  075%=      5-min Rain = 0
KCO1 260150Z 11014KT 23/18 A2989 RMK A01 T02270182  RH  076%=      5-min Rain = 0
KCO1 260151Z 11012KT 23/18 A2989 RMK A01 T02270182  RH  076%=      5-min Rain = 0
KCO1 260152Z 11010KT 23/18 A2989 RMK A01 T02270182  RH  076%=      5-min Rain = 0
KCO1 260153Z 11010KT 23/18 A2989 RMK A01 T02270182  RH  076%=      5-min Rain = 0
KCO1 260154Z 11011KT 23/18 A2989 RMK A01 T02270182  RH  076%=      5-min Rain = 0
KCO1 260155Z 11012KT 23/18 A2989 RMK A01 T02260182  RH  076%=      5-min Rain = 0
KCO1 260156Z 11012KT 23/18 A2989 RMK A01 T02260181  RH  076%=      5-min Rain = 0
KCO1 260157Z 11012KT 23/18 A2989 RMK A01 T02270181  RH  075%=      5-min Rain = 0
KCO1 260158Z 11011KT 23/18 A2989 RMK A01 T02270180  RH  075%=      5-min Rain = 0
KCO1 260159Z 11013KT 23/18 A2989 RMK A01 T02280180  RH  074%=      5-min Rain = 0
KCO1 260200Z 12013KT 23/18 A2989 RMK A01 T02290180  RH  074%=      5-min Rain = 0
KCO1 260201Z 12014KT 23/18 A2989 RMK A01 T02310180  RH  073%=      5-min Rain = 0
KCO1 260202Z 12015KT 23/18 A2989 RMK A01 T02330179  RH  072%=      5-min Rain = 0
KCO1 260203Z 12019KT 24/18 A2989 RMK A01 T02360178  RH  070%=      5-min Rain = 0
KCO1 260204Z 12019KT 24/18 A2989 RMK A01 T02420179  RH  068%=      5-min Rain = 0
KCO1 260205Z 12022KT 25/18 A2989 RMK A01 T02450178  RH  067%=      5-min Rain = 0
KCO1 260206Z 13018G23KT 25/18 A2989 RMK A01 T02460179  RH  066%=      5-min Rain = 0
KCO1 260207Z 13020KT 25/18 A2989 RMK A01 T02470178  RH  066%=      5-min Rain = 0
KCO1 260208Z 12019KT 25/18 A2989 RMK A01 T02470178  RH  065%=      5-min Rain = 0
KCO1 260209Z 13019KT 25/18 A2989 RMK A01 T02490179  RH  065%=      5-min Rain = 0
KCO1 260210Z 12017KT 25/18 A2989 RMK A01 T02490179  RH  065%=      5-min Rain = 0
KCO1 260211Z 12018KT 25/18 A2989 RMK A01 T02490179  RH  065%=      5-min Rain = 0
KCO1 260212Z 12018KT 25/18 A2989 RMK A01 T02490179  RH  065%=      5-min Rain = 0
KCO1 260213Z 12019KT 25/18 A2989 RMK A01 T02490179  RH  065%=      5-min Rain = 0
KCO1 260214Z 12020KT 25/18 A2989 RMK A01 T02490178  RH  065%=      5-min Rain = 0
KCO1 260215Z 12016G21KT 25/18 A2989 RMK A01 T02490178  RH  065%=      5-min Rain = 0
KCO1 260216Z 12014KT 25/18 A2989 RMK A01 T02490178  RH  065%=      5-min Rain = 0
KCO1 260217Z 12017KT 25/18 A2989 RMK A01 T02490178  RH  065%=      5-min Rain = 0
KCO1 260218Z 12018KT 25/18 A2989 RMK A01 T02480178  RH  065%=      5-min Rain = 0
KCO1 260219Z 12018G23KT 25/18 A2989 RMK A01 T02480177  RH  065%=      5-min Rain = 0
KCO1 260220Z 12018G23KT 25/18 A2989 RMK A01 T02480178  RH  065%=      5-min Rain = 0
KCO1 260221Z 12019G25KT 25/18 A2989 RMK A01 T02480177  RH  065%=      5-min Rain = 0
KCO1 260222Z 12022KT 25/18 A2989 RMK A01 T02480177  RH  065%=      5-min Rain = 0
KCO1 260223Z 13024KT 25/18 A2989 RMK A01 T02480177  RH  065%=      5-min Rain = 0
KCO1 260224Z 13021KT 25/18 A2989 RMK A01 T02480177  RH  064%=      5-min Rain = 0
KCO1 260225Z 13020KT 25/18 A2989 RMK A01 T02480177  RH  064%=      5-min Rain = 0
KCO1 260226Z 13019KT 25/18 A299 RMK A01 T02480177  RH  064%=      5-min Rain = 0
KCO1 260227Z 13019KT 25/18 A299 RMK A01 T02470176  RH  065%=      5-min Rain = 0
KCO1 260228Z 13019G25KT 25/18 A299 RMK A01 T02470176  RH  065%=      5-min Rain = 0
KCO1 260229Z 13021KT 25/18 A2989 RMK A01 T02460176  RH  065%=      5-min Rain = 0
KCO1 260230Z 12022G28KT 25/18 A299 RMK A01 T02460176  RH  065%=      5-min Rain = 0
KCO1 260231Z 12023KT 25/18 A2989 RMK A01 T02460176  RH  065%=      5-min Rain = 0
KCO1 260232Z 12019G24KT 25/18 A299 RMK A01 T02460176  RH  065%=      5-min Rain = 0
KCO1 260233Z 12019KT 25/18 A299 RMK A01 T02450176  RH  065%=      5-min Rain = 0
KCO1 260234Z 12019KT 24/18 A299 RMK A01 T02440176  RH  066%=      5-min Rain = 0
KCO1 260235Z 12019KT 24/18 A299 RMK A01 T02440176  RH  066%=      5-min Rain = 0
KCO1 260236Z 12019KT 24/18 A299 RMK A01 T02430176  RH  066%=      5-min Rain = 0
KCO1 260237Z 12018KT 24/18 A299 RMK A01 T02420176  RH  066%=      5-min Rain = 0
KCO1 260238Z 12018KT 24/18 A299 RMK A01 T02410176  RH  067%=      5-min Rain = 0
KCO1 260239Z 11016KT 24/18 A299 RMK A01 T02400176  RH  067%=      5-min Rain = 0
KCO1 260240Z 12016KT 24/18 A299 RMK A01 T02390176  RH  068%=      5-min Rain = 0
KCO1 260241Z 12017G22KT 24/18 A299 RMK A01 T02380176  RH  068%=      5-min Rain = 0
KCO1 260242Z 12014G19KT 24/18 A299 RMK A01 T02380177  RH  068%=      5-min Rain = 0
KCO1 260243Z 12016KT 24/18 A299 RMK A01 T02370176  RH  069%=      5-min Rain = 0
KCO1 260244Z 12014KT 24/18 A299 RMK A01 T02370176  RH  069%=      5-min Rain = 0
KCO1 260245Z 12012KT 24/18 A299 RMK A01 T02370176  RH  069%=      5-min Rain = 0
KCO1 260246Z 12012KT 24/18 A299 RMK A01 T02360177  RH  069%=      5-min Rain = 0
KCO1 260247Z 12014KT 24/18 A299 RMK A01 T02360177  RH  069%=      5-min Rain = 0
KCO1 260248Z 12016KT 24/18 A299 RMK A01 T02350176  RH  069%=      5-min Rain = 0
KCO1 260249Z 11016KT 24/18 A299 RMK A01 T02350176  RH  069%=      5-min Rain = 0
KCO1 260250Z 12016KT 24/18 A299 RMK A01 T02360176  RH  069%=      5-min Rain = 0
KCO1 260251Z 11014KT 24/18 A299 RMK A01 T02360176  RH  069%=      5-min Rain = 0
KCO1 260252Z 11015KT 24/18 A299 RMK A01 T02360176  RH  069%=      5-min Rain = 0
KCO1 260253Z 11015G21KT 24/18 A299 RMK A01 T02350176  RH  069%=      5-min Rain = 0
KCO1 260254Z 11015KT 24/18 A299 RMK A01 T02350176  RH  069%=      5-min Rain = 0
KCO1 260255Z 11015KT 24/18 A299 RMK A01 T02350176  RH  069%=      5-min Rain = 0
KCO1 260256Z 11016KT 24/18 A2991 RMK A01 T02350176  RH  069%=      5-min Rain = 0
KCO1 260257Z 11015G20KT 24/18 A2991 RMK A01 T02350176  RH  070%=      5-min Rain = 0
KCO1 260258Z 11014KT 23/18 A299 RMK A01 T02340176  RH  070%=      5-min Rain = 0
KCO1 260259Z 11017KT 23/18 A2991 RMK A01 T02340176  RH  070%=      5-min Rain = 0
KCO1 260300Z 11013G18KT 23/18 A2991 RMK A01 T02340176  RH  070%=      5-min Rain = 0
KCO1 260301Z 10015KT 23/18 A2991 RMK A01 T02340176  RH  070%=      5-min Rain = 0
KCO1 260302Z 11013KT 23/18 A2991 RMK A01 T02340176  RH  070%=      5-min Rain = 0
KCO1 260303Z 11013KT 23/18 A2991 RMK A01 T02340176  RH  070%=      5-min Rain = 0
KCO1 260304Z 11013KT 23/18 A299 RMK A01 T02340176  RH  070%=      5-min Rain = 0
KCO1 260305Z 11015KT 23/18 A2991 RMK A01 T02330176  RH  070%=      5-min Rain = 0
KCO1 260306Z 11016KT 23/18 A2991 RMK A01 T02330176  RH  070%=      5-min Rain = 0
KCO1 260307Z 11015KT 23/18 A299 RMK A01 T02330176  RH  070%=      5-min Rain = 0
KCO1 260308Z 11014KT 23/18 A2991 RMK A01 T02340176  RH  070%=      5-min Rain = 0
KCO1 260309Z 11014KT 23/18 A2991 RMK A01 T02340176  RH  070%=      5-min Rain = 0
KCO1 260310Z 11015KT 23/18 A2991 RMK A01 T02340176  RH  070%=      5-min Rain = 0
KCO1 260311Z 11014KT 23/18 A2991 RMK A01 T02340177  RH  070%=      5-min Rain = 0
KCO1 260312Z 11014KT 23/18 A2991 RMK A01 T02330177  RH  070%=      5-min Rain = 0
KCO1 260313Z 11014KT 23/18 A2991 RMK A01 T02330177  RH  071%=      5-min Rain = 0
KCO1 260314Z 11014KT 23/18 A2991 RMK A01 T02330177  RH  071%=      5-min Rain = 0
KCO1 260315Z 11014KT 23/18 A2991 RMK A01 T02330177  RH  071%=      5-min Rain = 0
KCO1 260316Z 10012KT 23/18 A2991 RMK A01 T02320177  RH  071%=      5-min Rain = 0
KCO1 260317Z 11013KT 23/18 A2991 RMK A01 T02320177  RH  071%=      5-min Rain = 0
KCO1 260318Z 11014KT 23/18 A2991 RMK A01 T02320177  RH  071%=      5-min Rain = 0
KCO1 260319Z 11015KT 23/18 A2991 RMK A01 T02320177  RH  071%=      5-min Rain = 0
KCO1 260320Z 11014G20KT 23/18 A2991 RMK A01 T02310177  RH  072%=      5-min Rain = 0
KCO1 260321Z 11014KT 23/18 A2991 RMK A01 T02310178  RH  072%=      5-min Rain = 0
KCO1 260322Z 11012KT 23/18 A2991 RMK A01 T02310177  RH  072%=      5-min Rain = 0
KCO1 260323Z 11012KT 23/18 A2991 RMK A01 T02300178  RH  072%=      5-min Rain = 0
KCO1 260324Z 11013KT 23/18 A2991 RMK A01 T02290178  RH  073%=      5-min Rain = 0
KCO1 260325Z 11013KT 23/18 A2991 RMK A01 T02290178  RH  073%=      5-min Rain = 0
KCO1 260326Z 11012KT 23/18 A2991 RMK A01 T02290178  RH  073%=      5-min Rain = 0
KCO1 260327Z 11013KT 23/18 A2991 RMK A01 T02280178  RH  073%=      5-min Rain = 0
KCO1 260328Z 11013KT 23/18 A2991 RMK A01 T02280178  RH  073%=      5-min Rain = 0
KCO1 260329Z 11014KT 23/18 A2991 RMK A01 T02280178  RH  074%=      5-min Rain = 0
KCO1 260330Z 11013KT 23/18 A2991 RMK A01 T02280179  RH  074%=      5-min Rain = 0
KCO1 260331Z 11014KT 23/18 A2991 RMK A01 T02270178  RH  074%=      5-min Rain = 0
KCO1 260332Z 11013KT 23/18 A2991 RMK A01 T02270179  RH  074%=      5-min Rain = 0
KCO1 260333Z 11013KT 23/18 A2991 RMK A01 T02270179  RH  074%=      5-min Rain = 0
KCO1 260334Z 11011KT 23/18 A2991 RMK A01 T02270179  RH  074%=      5-min Rain = 0
KCO1 260335Z 11012KT 23/18 A2991 RMK A01 T02270179  RH  074%=      5-min Rain = 0
KCO1 260336Z 11012KT 23/18 A2991 RMK A01 T02270179  RH  074%=      5-min Rain = 0
KCO1 260337Z 11012KT 23/18 A2991 RMK A01 T02270179  RH  075%=      5-min Rain = 0
KCO1 260338Z 11014KT 23/18 A2991 RMK A01 T02260179  RH  075%=      5-min Rain = 0
KCO1 260339Z 11013KT 23/18 A2991 RMK A01 T02260179  RH  075%=      5-min Rain = 0
KCO1 260340Z 11014KT 23/18 A2991 RMK A01 T02260179  RH  075%=      5-min Rain = 0
KCO1 260341Z 11014KT 23/18 A2991 RMK A01 T02270179  RH  075%=      5-min Rain = 0
KCO1 260342Z 11013KT 23/18 A2991 RMK A01 T02270179  RH  074%=      5-min Rain = 0
KCO1 260343Z 11011KT 23/18 A2991 RMK A01 T02270179  RH  074%=      5-min Rain = 0
KCO1 260344Z 10014KT 23/18 A2991 RMK A01 T02270179  RH  074%=      5-min Rain = 0
KCO1 260345Z 11013KT 23/18 A2991 RMK A01 T02280179  RH  074%=      5-min Rain = 0
KCO1 260346Z 11013KT 23/18 A2991 RMK A01 T02280180  RH  074%=      5-min Rain = 0
KCO1 260347Z 10012KT 23/18 A2991 RMK A01 T02280180  RH  074%=      5-min Rain = 0
KCO1 260348Z 11013KT 23/18 A2991 RMK A01 T02280180  RH  074%=      5-min Rain = 0
KCO1 260349Z 10012KT 23/18 A2991 RMK A01 T02280180  RH  074%=      5-min Rain = 0
KCO1 260350Z 10011KT 23/18 A2991 RMK A01 T02280180  RH  074%=      5-min Rain = 0
KCO1 260351Z 11011KT 23/18 A2991 RMK A01 T02270180  RH  075%=      5-min Rain = 0
KCO1 260352Z 10012KT 23/18 A2991 RMK A01 T02270180  RH  075%=      5-min Rain = 0
KCO1 260353Z 11011KT 23/18 A2991 RMK A01 T02270180  RH  075%=      5-min Rain = 0
KCO1 260354Z 10012KT 23/18 A2991 RMK A01 T02260180  RH  075%=      5-min Rain = 0
KCO1 260355Z 11013KT 23/18 A2991 RMK A01 T02260180  RH  075%=      5-min Rain = 0
KCO1 260356Z 10012KT 23/18 A2991 RMK A01 T02270180  RH  075%=      5-min Rain = 0
KCO1 260357Z 10012KT 23/18 A2991 RMK A01 T02270180  RH  075%=      5-min Rain = 0
KCO1 260358Z 10012KT 23/18 A2991 RMK A01 T02270180  RH  075%=      5-min Rain = 0
KCO1 260359Z 10011KT 23/18 A2991 RMK A01 T02260180  RH  075%=      5-min Rain = 0
KCO1 260400Z 10011KT 23/18 A2991 RMK A01 T02260180  RH  075%=      5-min Rain = 0
KCO1 260401Z 11011KT 23/18 A2991 RMK A01 T02260180  RH  075%=      5-min Rain = 0
KCO1 260402Z 10011KT 23/18 A2991 RMK A01 T02260180  RH  075%=      5-min Rain = 0
KCO1 260403Z 10010KT 23/18 A2991 RMK A01 T02260180  RH  075%=      5-min Rain = 0
KCO1 260404Z 11011KT 23/18 A2991 RMK A01 T02260180  RH  075%=      5-min Rain = 0
KCO1 260405Z 11010KT 23/18 A2991 RMK A01 T02250180  RH  075%=      5-min Rain = 0
KCO1 260406Z 10010KT 23/18 A2991 RMK A01 T02250180  RH  075%=      5-min Rain = 0
KCO1 260407Z 10010KT 23/18 A2991 RMK A01 T02250180  RH  075%=      5-min Rain = 0
KCO1 260408Z 10010KT 23/18 A2991 RMK A01 T02250180  RH  075%=      5-min Rain = 0
KCO1 260409Z 11009KT 23/18 A2991 RMK A01 T02260180  RH  076%=      5-min Rain = 0
KCO1 260410Z 10011KT 23/18 A2991 RMK A01 T02250180  RH  076%=      5-min Rain = 0
KCO1 260411Z 10010KT 23/18 A2991 RMK A01 T02250180  RH  076%=      5-min Rain = 0
KCO1 260412Z 10010KT 23/18 A2991 RMK A01 T02250180  RH  076%=      5-min Rain = 0
KCO1 260413Z 10009KT 23/18 A2991 RMK A01 T02250180  RH  076%=      5-min Rain = 0
KCO1 260414Z 10009KT 22/18 A2991 RMK A01 T02240180  RH  076%=      5-min Rain = 0
KCO1 260415Z 10009KT 22/18 A2991 RMK A01 T02240180  RH  076%=      5-min Rain = 0
KCO1 260416Z 10009KT 22/18 A2991 RMK A01 T02240180  RH  076%=      5-min Rain = 0
KCO1 260417Z 10010KT 22/18 A2991 RMK A01 T02230180  RH  077%=      5-min Rain = 0
KCO1 260418Z 10010KT 22/18 A2991 RMK A01 T02230180  RH  077%=      5-min Rain = 0
KCO1 260419Z 10009KT 22/18 A2991 RMK A01 T02230180  RH  077%=      5-min Rain = 0
KCO1 260420Z 10008KT 22/18 A2991 RMK A01 T02230180  RH  077%=      5-min Rain = 0
KCO1 260421Z 10008KT 22/18 A2991 RMK A01 T02230180  RH  077%=      5-min Rain = 0
KCO1 260422Z 10009KT 22/18 A2991 RMK A01 T02220180  RH  077%=      5-min Rain = 0
KCO1 260423Z 10009KT 22/18 A2991 RMK A01 T02220180  RH  077%=      5-min Rain = 0
KCO1 260424Z 10008KT 22/18 A2991 RMK A01 T02210180  RH  078%=      5-min Rain = 0
KCO1 260425Z 10008KT 22/18 A2991 RMK A01 T02210180  RH  078%=      5-min Rain = 0
KCO1 260426Z 10009KT 22/18 A2991 RMK A01 T02210180  RH  078%=      5-min Rain = 0
KCO1 260427Z 11009KT 22/18 A2991 RMK A01 T02210180  RH  078%=      5-min Rain = 0
KCO1 260428Z 10009KT 22/18 A2991 RMK A01 T02210180  RH  078%=      5-min Rain = 0
KCO1 260429Z 10009KT 22/18 A2991 RMK A01 T02210180  RH  078%=      5-min Rain = 0
KCO1 260430Z 11009KT 22/18 A2991 RMK A01 T02210180  RH  078%=      5-min Rain = 0
KCO1 260431Z 11009KT 22/18 A2991 RMK A01 T02210181  RH  078%=      5-min Rain = 0
KCO1 260432Z 11010KT 22/18 A2991 RMK A01 T02210181  RH  078%=      5-min Rain = 0
KCO1 260433Z 11010KT 22/18 A2991 RMK A01 T02210181  RH  078%=      5-min Rain = 0
KCO1 260434Z 11009KT 22/18 A299 RMK A01 T02210181  RH  078%=      5-min Rain = 0
KCO1 260435Z 11009KT 22/18 A299 RMK A01 T02210181  RH  078%=      5-min Rain = 0
KCO1 260436Z 11009KT 22/18 A299 RMK A01 T02210181  RH  078%=      5-min Rain = 0
KCO1 260437Z 11010KT 22/18 A299 RMK A01 T02210181  RH  078%=      5-min Rain = 0
KCO1 260438Z 11010KT 22/18 A299 RMK A01 T02200181  RH  078%=      5-min Rain = 0
KCO1 260439Z 11009KT 22/18 A299 RMK A01 T02210181  RH  078%=      5-min Rain = 0
KCO1 260440Z 11010KT 22/18 A2991 RMK A01 T02200181  RH  078%=      5-min Rain = 0
KCO1 260441Z 11010KT 22/18 A299 RMK A01 T02210181  RH  078%=      5-min Rain = 0
KCO1 260442Z 11010KT 22/18 A299 RMK A01 T02200181  RH  078%=      5-min Rain = 0
KCO1 260443Z 11010KT 22/18 A299 RMK A01 T02200181  RH  078%=      5-min Rain = 0
KCO1 260444Z 11009KT 22/18 A299 RMK A01 T02200181  RH  078%=      5-min Rain = 0
KCO1 260445Z 11011KT 22/18 A299 RMK A01 T02200181  RH  078%=      5-min Rain = 0
KCO1 260446Z 11010KT 22/18 A299 RMK A01 T02200181  RH  078%=      5-min Rain = 0
KCO1 260447Z 11010KT 22/18 A299 RMK A01 T02200181  RH  078%=      5-min Rain = 0
KCO1 260448Z 11010KT 22/18 A299 RMK A01 T02200181  RH  078%=      5-min Rain = 0
KCO1 260449Z 10010KT 22/18 A299 RMK A01 T02200181  RH  078%=      5-min Rain = 0
KCO1 260450Z 10010KT 22/18 A299 RMK A01 T02200181  RH  078%=      5-min Rain = 0
KCO1 260451Z 11009KT 22/18 A299 RMK A01 T02200181  RH  078%=      5-min Rain = 0
KCO1 260452Z 11010KT 22/18 A299 RMK A01 T02200181  RH  078%=      5-min Rain = 0
KCO1 260453Z 11010KT 22/18 A299 RMK A01 T02200181  RH  078%=      5-min Rain = 0
KCO1 260454Z 11008KT 22/18 A299 RMK A01 T02200181  RH  079%=      5-min Rain = 0
KCO1 260455Z 11009KT 22/18 A299 RMK A01 T02200181  RH  079%=      5-min Rain = 0
KCO1 260456Z 11010KT 22/18 A299 RMK A01 T02190181  RH  079%=      5-min Rain = 0
KCO1 260457Z 11009KT 22/18 A299 RMK A01 T02200181  RH  079%=      5-min Rain = 0
KCO1 260458Z 11009KT 22/18 A299 RMK A01 T02190181  RH  079%=      5-min Rain = 0
KCO1 260459Z 11010KT 22/18 A299 RMK A01 T02190181  RH  079%=      5-min Rain = 0

Page generated in 0.1232 seconds.